<?xml version="1.0" encoding="UTF-8" standalone="no" ?>
<gpx xmlns="http://www.topografix.com/GPX/1/1" xmlns:xsi="http://www.w3.org/2001/XMLSchema-instance" xsi:schemaLocation="http://www.topografix.com/GPX/1/1 http://www.topografix.com/GPX/1/1/gpx.xsd" version="1.1" creator="VisuGPX - https://www.visugpx.com">
  <metadata>
    <name>Tête du Colonney</name>
    <desc><![CDATA[AlpineQuest Track 29/04/2017 08:56:31]]></desc>
  </metadata>
  <trk>
    <name><![CDATA[Tête du Colonney]]></name>
    <trkseg>
      <trkpt lat="46.00433" lon="6.69117">
        <ele>1569.1639404297</ele>
        <time>2017-04-29T06:56:31Z</time>
      </trkpt>
      <trkpt lat="46.00425" lon="6.69106">
        <ele>1561.6770019531</ele>
        <time>2017-04-29T06:56:46Z</time>
      </trkpt>
      <trkpt lat="46.00439" lon="6.69104">
        <ele>1568.6610107422</ele>
        <time>2017-04-29T06:58:44Z</time>
      </trkpt>
      <trkpt lat="46.00437" lon="6.69129">
        <ele>1574.5749511719</ele>
        <time>2017-04-29T07:01:11Z</time>
      </trkpt>
      <trkpt lat="46.0043" lon="6.69147">
        <ele>1576.3659667969</ele>
        <time>2017-04-29T07:01:24Z</time>
      </trkpt>
      <trkpt lat="46.0042" lon="6.6915">
        <ele>1577.2080078125</ele>
        <time>2017-04-29T07:01:31Z</time>
      </trkpt>
      <trkpt lat="46.00414" lon="6.69156">
        <ele>1579.0520019531</ele>
        <time>2017-04-29T07:01:45Z</time>
      </trkpt>
      <trkpt lat="46.00406" lon="6.69155">
        <ele>1579.5510253906</ele>
        <time>2017-04-29T07:01:52Z</time>
      </trkpt>
      <trkpt lat="46.00398" lon="6.69156">
        <ele>1579.7590332031</ele>
        <time>2017-04-29T07:01:59Z</time>
      </trkpt>
      <trkpt lat="46.00392" lon="6.69162">
        <ele>1580.5419921875</ele>
        <time>2017-04-29T07:02:11Z</time>
      </trkpt>
      <trkpt lat="46.00387" lon="6.6917">
        <ele>1580.3659667969</ele>
        <time>2017-04-29T07:02:16Z</time>
      </trkpt>
      <trkpt lat="46.00381" lon="6.69177">
        <ele>1580.3699951172</ele>
        <time>2017-04-29T07:02:25Z</time>
      </trkpt>
      <trkpt lat="46.00376" lon="6.69186">
        <ele>1581.3439941406</ele>
        <time>2017-04-29T07:02:34Z</time>
      </trkpt>
      <trkpt lat="46.0037" lon="6.69193">
        <ele>1582.3609619141</ele>
        <time>2017-04-29T07:02:40Z</time>
      </trkpt>
      <trkpt lat="46.00362" lon="6.69195">
        <ele>1583.2270507812</ele>
        <time>2017-04-29T07:02:51Z</time>
      </trkpt>
      <trkpt lat="46.00355" lon="6.69196">
        <ele>1583.7950439453</ele>
        <time>2017-04-29T07:02:58Z</time>
      </trkpt>
      <trkpt lat="46.00348" lon="6.69191">
        <ele>1585.6400146484</ele>
        <time>2017-04-29T07:03:09Z</time>
      </trkpt>
      <trkpt lat="46.00341" lon="6.69185">
        <ele>1586.5059814453</ele>
        <time>2017-04-29T07:03:20Z</time>
      </trkpt>
      <trkpt lat="46.00333" lon="6.69184">
        <ele>1585.9429931641</ele>
        <time>2017-04-29T07:03:25Z</time>
      </trkpt>
      <trkpt lat="46.00325" lon="6.69186">
        <ele>1585.375</ele>
        <time>2017-04-29T07:03:31Z</time>
      </trkpt>
      <trkpt lat="46.00317" lon="6.69185">
        <ele>1585.1190185547</ele>
        <time>2017-04-29T07:03:40Z</time>
      </trkpt>
      <trkpt lat="46.00312" lon="6.69193">
        <ele>1584.7889404297</ele>
        <time>2017-04-29T07:03:59Z</time>
      </trkpt>
      <trkpt lat="46.00306" lon="6.69198">
        <ele>1585.2080078125</ele>
        <time>2017-04-29T07:04:09Z</time>
      </trkpt>
      <trkpt lat="46.00299" lon="6.69203">
        <ele>1585.3020019531</ele>
        <time>2017-04-29T07:04:18Z</time>
      </trkpt>
      <trkpt lat="46.00291" lon="6.69202">
        <ele>1584.9630126953</ele>
        <time>2017-04-29T07:04:26Z</time>
      </trkpt>
      <trkpt lat="46.00284" lon="6.69204">
        <ele>1585.3599853516</ele>
        <time>2017-04-29T07:04:38Z</time>
      </trkpt>
      <trkpt lat="46.00277" lon="6.69211">
        <ele>1585.1999511719</ele>
        <time>2017-04-29T07:04:44Z</time>
      </trkpt>
      <trkpt lat="46.00274" lon="6.69221">
        <ele>1585.3759765625</ele>
        <time>2017-04-29T07:04:57Z</time>
      </trkpt>
      <trkpt lat="46.00269" lon="6.69229">
        <ele>1586.2110595703</ele>
        <time>2017-04-29T07:05:08Z</time>
      </trkpt>
      <trkpt lat="46.00262" lon="6.69229">
        <ele>1585.8950195312</ele>
        <time>2017-04-29T07:05:17Z</time>
      </trkpt>
      <trkpt lat="46.00256" lon="6.69222">
        <ele>1586.0789794922</ele>
        <time>2017-04-29T07:05:46Z</time>
      </trkpt>
      <trkpt lat="46.00249" lon="6.69214">
        <ele>1588.7540283203</ele>
        <time>2017-04-29T07:06:15Z</time>
      </trkpt>
      <trkpt lat="46.00244" lon="6.69207">
        <ele>1590.6979980469</ele>
        <time>2017-04-29T07:06:30Z</time>
      </trkpt>
      <trkpt lat="46.00238" lon="6.69199">
        <ele>1592.4250488281</ele>
        <time>2017-04-29T07:06:41Z</time>
      </trkpt>
      <trkpt lat="46.00232" lon="6.69193">
        <ele>1594.6450195312</ele>
        <time>2017-04-29T07:06:53Z</time>
      </trkpt>
      <trkpt lat="46.00226" lon="6.69187">
        <ele>1596.3010253906</ele>
        <time>2017-04-29T07:07:04Z</time>
      </trkpt>
      <trkpt lat="46.00219" lon="6.69193">
        <ele>1598.6140136719</ele>
        <time>2017-04-29T07:08:41Z</time>
      </trkpt>
      <trkpt lat="46.00213" lon="6.69197">
        <ele>1599.8470458984</ele>
        <time>2017-04-29T07:08:50Z</time>
      </trkpt>
      <trkpt lat="46.00207" lon="6.69205">
        <ele>1601.5129394531</ele>
        <time>2017-04-29T07:09:03Z</time>
      </trkpt>
      <trkpt lat="46.00201" lon="6.69211">
        <ele>1603.0720214844</ele>
        <time>2017-04-29T07:09:13Z</time>
      </trkpt>
      <trkpt lat="46.00196" lon="6.69218">
        <ele>1605.3790283203</ele>
        <time>2017-04-29T07:09:26Z</time>
      </trkpt>
      <trkpt lat="46.00189" lon="6.69216">
        <ele>1609.9010009766</ele>
        <time>2017-04-29T07:09:54Z</time>
      </trkpt>
      <trkpt lat="46.00182" lon="6.6921">
        <ele>1611.1350097656</ele>
        <time>2017-04-29T07:10:04Z</time>
      </trkpt>
      <trkpt lat="46.00177" lon="6.69203">
        <ele>1612.0300292969</ele>
        <time>2017-04-29T07:10:14Z</time>
      </trkpt>
      <trkpt lat="46.0017" lon="6.69199">
        <ele>1612.1400146484</ele>
        <time>2017-04-29T07:10:29Z</time>
      </trkpt>
      <trkpt lat="46.00164" lon="6.69192">
        <ele>1611.9689941406</ele>
        <time>2017-04-29T07:10:40Z</time>
      </trkpt>
      <trkpt lat="46.0016" lon="6.69201">
        <ele>1616.4420166016</ele>
        <time>2017-04-29T07:11:04Z</time>
      </trkpt>
      <trkpt lat="46.00154" lon="6.69208">
        <ele>1619.0030517578</ele>
        <time>2017-04-29T07:11:17Z</time>
      </trkpt>
      <trkpt lat="46.00148" lon="6.69214">
        <ele>1621.0369873047</ele>
        <time>2017-04-29T07:11:29Z</time>
      </trkpt>
      <trkpt lat="46.00142" lon="6.69221">
        <ele>1622.5589599609</ele>
        <time>2017-04-29T07:11:45Z</time>
      </trkpt>
      <trkpt lat="46.00136" lon="6.69226">
        <ele>1626.2459716797</ele>
        <time>2017-04-29T07:12:10Z</time>
      </trkpt>
      <trkpt lat="46.0013" lon="6.69219">
        <ele>1629.6219482422</ele>
        <time>2017-04-29T07:12:27Z</time>
      </trkpt>
      <trkpt lat="46.00124" lon="6.69211">
        <ele>1631.0830078125</ele>
        <time>2017-04-29T07:12:37Z</time>
      </trkpt>
      <trkpt lat="46.00119" lon="6.69203">
        <ele>1634.0649414062</ele>
        <time>2017-04-29T07:12:56Z</time>
      </trkpt>
      <trkpt lat="46.00114" lon="6.69196">
        <ele>1635.8100585938</ele>
        <time>2017-04-29T07:13:08Z</time>
      </trkpt>
      <trkpt lat="46.00107" lon="6.692">
        <ele>1637.748046875</ele>
        <time>2017-04-29T07:13:29Z</time>
      </trkpt>
      <trkpt lat="46.00102" lon="6.69207">
        <ele>1639.7080078125</ele>
        <time>2017-04-29T07:13:42Z</time>
      </trkpt>
      <trkpt lat="46.00094" lon="6.69211">
        <ele>1641.8680419922</ele>
        <time>2017-04-29T07:13:56Z</time>
      </trkpt>
      <trkpt lat="46.0009" lon="6.6922">
        <ele>1644.6850585938</ele>
        <time>2017-04-29T07:14:15Z</time>
      </trkpt>
      <trkpt lat="46.00085" lon="6.69228">
        <ele>1646.2900390625</ele>
        <time>2017-04-29T07:14:29Z</time>
      </trkpt>
      <trkpt lat="46.00078" lon="6.69229">
        <ele>1646.9370117188</ele>
        <time>2017-04-29T07:14:48Z</time>
      </trkpt>
      <trkpt lat="46.00073" lon="6.69221">
        <ele>1648.1500244141</ele>
        <time>2017-04-29T07:15:03Z</time>
      </trkpt>
      <trkpt lat="46.00068" lon="6.69214">
        <ele>1650.2769775391</ele>
        <time>2017-04-29T07:15:24Z</time>
      </trkpt>
      <trkpt lat="46.00062" lon="6.69207">
        <ele>1650.9460449219</ele>
        <time>2017-04-29T07:15:33Z</time>
      </trkpt>
      <trkpt lat="46.00057" lon="6.69198">
        <ele>1653.2850341797</ele>
        <time>2017-04-29T07:15:50Z</time>
      </trkpt>
      <trkpt lat="46.00052" lon="6.69205">
        <ele>1656.8909912109</ele>
        <time>2017-04-29T07:16:10Z</time>
      </trkpt>
      <trkpt lat="46.00048" lon="6.69215">
        <ele>1658.8210449219</ele>
        <time>2017-04-29T07:16:25Z</time>
      </trkpt>
      <trkpt lat="46.00042" lon="6.69221">
        <ele>1659.6700439453</ele>
        <time>2017-04-29T07:16:38Z</time>
      </trkpt>
      <trkpt lat="46.00037" lon="6.69229">
        <ele>1661.6490478516</ele>
        <time>2017-04-29T07:16:56Z</time>
      </trkpt>
      <trkpt lat="46.0003" lon="6.69224">
        <ele>1666.3580322266</ele>
        <time>2017-04-29T07:17:26Z</time>
      </trkpt>
      <trkpt lat="46.00025" lon="6.69216">
        <ele>1668.0529785156</ele>
        <time>2017-04-29T07:17:36Z</time>
      </trkpt>
      <trkpt lat="46.00021" lon="6.69207">
        <ele>1670.9649658203</ele>
        <time>2017-04-29T07:17:52Z</time>
      </trkpt>
      <trkpt lat="46.00016" lon="6.69199">
        <ele>1674.3360595703</ele>
        <time>2017-04-29T07:18:06Z</time>
      </trkpt>
      <trkpt lat="46.0001" lon="6.69206">
        <ele>1678.7540283203</ele>
        <time>2017-04-29T07:18:32Z</time>
      </trkpt>
      <trkpt lat="46.00005" lon="6.69213">
        <ele>1680.5880126953</ele>
        <time>2017-04-29T07:18:45Z</time>
      </trkpt>
      <trkpt lat="46.00001" lon="6.69222">
        <ele>1682.6910400391</ele>
        <time>2017-04-29T07:19:03Z</time>
      </trkpt>
      <trkpt lat="45.99994" lon="6.69219">
        <ele>1685.5959472656</ele>
        <time>2017-04-29T07:19:25Z</time>
      </trkpt>
      <trkpt lat="45.99991" lon="6.6921">
        <ele>1686.9029541016</ele>
        <time>2017-04-29T07:19:41Z</time>
      </trkpt>
      <trkpt lat="45.99986" lon="6.69201">
        <ele>1688.5360107422</ele>
        <time>2017-04-29T07:19:58Z</time>
      </trkpt>
      <trkpt lat="45.99982" lon="6.69191">
        <ele>1690.3299560547</ele>
        <time>2017-04-29T07:20:11Z</time>
      </trkpt>
      <trkpt lat="45.99977" lon="6.69185">
        <ele>1694.8189697266</ele>
        <time>2017-04-29T07:20:38Z</time>
      </trkpt>
      <trkpt lat="45.9997" lon="6.69189">
        <ele>1697.3699951172</ele>
        <time>2017-04-29T07:20:54Z</time>
      </trkpt>
      <trkpt lat="45.99964" lon="6.69195">
        <ele>1697.5159912109</ele>
        <time>2017-04-29T07:21:07Z</time>
      </trkpt>
      <trkpt lat="45.99961" lon="6.69205">
        <ele>1699.9780273438</ele>
        <time>2017-04-29T07:21:20Z</time>
      </trkpt>
      <trkpt lat="45.99956" lon="6.69213">
        <ele>1702.1369628906</ele>
        <time>2017-04-29T07:21:36Z</time>
      </trkpt>
      <trkpt lat="45.99951" lon="6.6922">
        <ele>1704.0469970703</ele>
        <time>2017-04-29T07:21:50Z</time>
      </trkpt>
      <trkpt lat="45.99945" lon="6.69227">
        <ele>1705.7640380859</ele>
        <time>2017-04-29T07:22:06Z</time>
      </trkpt>
      <trkpt lat="45.9994" lon="6.69235">
        <ele>1708.7829589844</ele>
        <time>2017-04-29T07:22:24Z</time>
      </trkpt>
      <trkpt lat="45.99932" lon="6.69233">
        <ele>1712.1569824219</ele>
        <time>2017-04-29T07:22:52Z</time>
      </trkpt>
      <trkpt lat="45.99927" lon="6.69224">
        <ele>1713.625</ele>
        <time>2017-04-29T07:23:09Z</time>
      </trkpt>
      <trkpt lat="45.99924" lon="6.69214">
        <ele>1715.3869628906</ele>
        <time>2017-04-29T07:23:25Z</time>
      </trkpt>
      <trkpt lat="45.99919" lon="6.69206">
        <ele>1717.8969726562</ele>
        <time>2017-04-29T07:23:40Z</time>
      </trkpt>
      <trkpt lat="45.99912" lon="6.69204">
        <ele>1720.2259521484</ele>
        <time>2017-04-29T07:23:57Z</time>
      </trkpt>
      <trkpt lat="45.9991" lon="6.69214">
        <ele>1723.7220458984</ele>
        <time>2017-04-29T07:24:11Z</time>
      </trkpt>
      <trkpt lat="45.99904" lon="6.69222">
        <ele>1727.6190185547</ele>
        <time>2017-04-29T07:24:29Z</time>
      </trkpt>
      <trkpt lat="45.99897" lon="6.69224">
        <ele>1729.375</ele>
        <time>2017-04-29T07:24:44Z</time>
      </trkpt>
      <trkpt lat="45.9989" lon="6.69229">
        <ele>1732.8439941406</ele>
        <time>2017-04-29T07:25:08Z</time>
      </trkpt>
      <trkpt lat="45.99885" lon="6.69237">
        <ele>1735.7550048828</ele>
        <time>2017-04-29T07:25:22Z</time>
      </trkpt>
      <trkpt lat="45.9988" lon="6.69244">
        <ele>1737.458984375</ele>
        <time>2017-04-29T07:25:37Z</time>
      </trkpt>
      <trkpt lat="45.99878" lon="6.69254">
        <ele>1738.9260253906</ele>
        <time>2017-04-29T07:25:49Z</time>
      </trkpt>
      <trkpt lat="45.99878" lon="6.69265">
        <ele>1740.83203125</ele>
        <time>2017-04-29T07:26:00Z</time>
      </trkpt>
      <trkpt lat="45.99875" lon="6.69275">
        <ele>1743.4379882812</ele>
        <time>2017-04-29T07:26:14Z</time>
      </trkpt>
      <trkpt lat="45.99873" lon="6.69285">
        <ele>1745.0560302734</ele>
        <time>2017-04-29T07:26:24Z</time>
      </trkpt>
      <trkpt lat="45.99877" lon="6.69296">
        <ele>1745.873046875</ele>
        <time>2017-04-29T07:26:34Z</time>
      </trkpt>
      <trkpt lat="45.99878" lon="6.69308">
        <ele>1746.9119873047</ele>
        <time>2017-04-29T07:26:41Z</time>
      </trkpt>
      <trkpt lat="45.99876" lon="6.69319">
        <ele>1747.8840332031</ele>
        <time>2017-04-29T07:26:46Z</time>
      </trkpt>
      <trkpt lat="45.99871" lon="6.6934">
        <ele>1750.7030029297</ele>
        <time>2017-04-29T07:26:58Z</time>
      </trkpt>
      <trkpt lat="45.99869" lon="6.6935">
        <ele>1751.3520507812</ele>
        <time>2017-04-29T07:27:06Z</time>
      </trkpt>
      <trkpt lat="45.99862" lon="6.69355">
        <ele>1751.6899414062</ele>
        <time>2017-04-29T07:27:15Z</time>
      </trkpt>
      <trkpt lat="45.99856" lon="6.69361">
        <ele>1751.7779541016</ele>
        <time>2017-04-29T07:27:25Z</time>
      </trkpt>
      <trkpt lat="45.99849" lon="6.69366">
        <ele>1752.5849609375</ele>
        <time>2017-04-29T07:27:33Z</time>
      </trkpt>
      <trkpt lat="45.99845" lon="6.69375">
        <ele>1753.8709716797</ele>
        <time>2017-04-29T07:27:43Z</time>
      </trkpt>
      <trkpt lat="45.99839" lon="6.69381">
        <ele>1754.6529541016</ele>
        <time>2017-04-29T07:27:53Z</time>
      </trkpt>
      <trkpt lat="45.99833" lon="6.69386">
        <ele>1755.75</ele>
        <time>2017-04-29T07:28:04Z</time>
      </trkpt>
      <trkpt lat="45.99827" lon="6.69393">
        <ele>1756.333984375</ele>
        <time>2017-04-29T07:28:14Z</time>
      </trkpt>
      <trkpt lat="45.99821" lon="6.69401">
        <ele>1757.4329833984</ele>
        <time>2017-04-29T07:28:21Z</time>
      </trkpt>
      <trkpt lat="45.99816" lon="6.69409">
        <ele>1758.6629638672</ele>
        <time>2017-04-29T07:28:38Z</time>
      </trkpt>
      <trkpt lat="45.99808" lon="6.69415">
        <ele>1760.9809570312</ele>
        <time>2017-04-29T07:28:57Z</time>
      </trkpt>
      <trkpt lat="45.99802" lon="6.69421">
        <ele>1760.2449951172</ele>
        <time>2017-04-29T07:29:12Z</time>
      </trkpt>
      <trkpt lat="45.99796" lon="6.69428">
        <ele>1760.0679931641</ele>
        <time>2017-04-29T07:29:28Z</time>
      </trkpt>
      <trkpt lat="45.99789" lon="6.69433">
        <ele>1761.4749755859</ele>
        <time>2017-04-29T07:29:42Z</time>
      </trkpt>
      <trkpt lat="45.99786" lon="6.69442">
        <ele>1763.2550048828</ele>
        <time>2017-04-29T07:29:58Z</time>
      </trkpt>
      <trkpt lat="45.99781" lon="6.69451">
        <ele>1764.54296875</ele>
        <time>2017-04-29T07:30:13Z</time>
      </trkpt>
      <trkpt lat="45.99775" lon="6.69457">
        <ele>1765.6560058594</ele>
        <time>2017-04-29T07:30:30Z</time>
      </trkpt>
      <trkpt lat="45.99771" lon="6.69466">
        <ele>1768.7810058594</ele>
        <time>2017-04-29T07:30:50Z</time>
      </trkpt>
      <trkpt lat="45.99764" lon="6.69472">
        <ele>1770.8199462891</ele>
        <time>2017-04-29T07:31:05Z</time>
      </trkpt>
      <trkpt lat="45.99757" lon="6.69475">
        <ele>1773.9360351562</ele>
        <time>2017-04-29T07:31:25Z</time>
      </trkpt>
      <trkpt lat="45.9975" lon="6.69478">
        <ele>1774.9940185547</ele>
        <time>2017-04-29T07:31:37Z</time>
      </trkpt>
      <trkpt lat="45.99742" lon="6.69477">
        <ele>1777.0219726562</ele>
        <time>2017-04-29T07:32:00Z</time>
      </trkpt>
      <trkpt lat="45.99738" lon="6.69468">
        <ele>1778.7669677734</ele>
        <time>2017-04-29T07:32:14Z</time>
      </trkpt>
      <trkpt lat="45.99734" lon="6.69459">
        <ele>1781.5389404297</ele>
        <time>2017-04-29T07:32:32Z</time>
      </trkpt>
      <trkpt lat="45.9973" lon="6.6945">
        <ele>1783.9670410156</ele>
        <time>2017-04-29T07:32:48Z</time>
      </trkpt>
      <trkpt lat="45.99724" lon="6.69443">
        <ele>1786.0770263672</ele>
        <time>2017-04-29T07:33:03Z</time>
      </trkpt>
      <trkpt lat="45.99718" lon="6.69437">
        <ele>1788.2149658203</ele>
        <time>2017-04-29T07:33:19Z</time>
      </trkpt>
      <trkpt lat="45.99711" lon="6.69433">
        <ele>1790.123046875</ele>
        <time>2017-04-29T07:33:34Z</time>
      </trkpt>
      <trkpt lat="45.99704" lon="6.69427">
        <ele>1792.3709716797</ele>
        <time>2017-04-29T07:33:51Z</time>
      </trkpt>
      <trkpt lat="45.99698" lon="6.69421">
        <ele>1796.0860595703</ele>
        <time>2017-04-29T07:34:07Z</time>
      </trkpt>
      <trkpt lat="45.99692" lon="6.69414">
        <ele>1798.1550292969</ele>
        <time>2017-04-29T07:34:19Z</time>
      </trkpt>
      <trkpt lat="45.99685" lon="6.69408">
        <ele>1800.6300048828</ele>
        <time>2017-04-29T07:34:34Z</time>
      </trkpt>
      <trkpt lat="45.99679" lon="6.69403">
        <ele>1802.8590087891</ele>
        <time>2017-04-29T07:34:46Z</time>
      </trkpt>
      <trkpt lat="45.99673" lon="6.69396">
        <ele>1804.9930419922</ele>
        <time>2017-04-29T07:34:57Z</time>
      </trkpt>
      <trkpt lat="45.99667" lon="6.69391">
        <ele>1807.2800292969</ele>
        <time>2017-04-29T07:35:08Z</time>
      </trkpt>
      <trkpt lat="45.99659" lon="6.69388">
        <ele>1808.9580078125</ele>
        <time>2017-04-29T07:35:23Z</time>
      </trkpt>
      <trkpt lat="45.99652" lon="6.69386">
        <ele>1809.7640380859</ele>
        <time>2017-04-29T07:35:34Z</time>
      </trkpt>
      <trkpt lat="45.99643" lon="6.69381">
        <ele>1811.0610351562</ele>
        <time>2017-04-29T07:35:45Z</time>
      </trkpt>
      <trkpt lat="45.99635" lon="6.69378">
        <ele>1811.5140380859</ele>
        <time>2017-04-29T07:35:54Z</time>
      </trkpt>
      <trkpt lat="45.99628" lon="6.69377">
        <ele>1811.4000244141</ele>
        <time>2017-04-29T07:36:05Z</time>
      </trkpt>
      <trkpt lat="45.9962" lon="6.69376">
        <ele>1811.8110351562</ele>
        <time>2017-04-29T07:36:17Z</time>
      </trkpt>
      <trkpt lat="45.99613" lon="6.69375">
        <ele>1812.7989501953</ele>
        <time>2017-04-29T07:36:31Z</time>
      </trkpt>
      <trkpt lat="45.99606" lon="6.69377">
        <ele>1814.4610595703</ele>
        <time>2017-04-29T07:36:45Z</time>
      </trkpt>
      <trkpt lat="45.99599" lon="6.69381">
        <ele>1816.1610107422</ele>
        <time>2017-04-29T07:37:03Z</time>
      </trkpt>
      <trkpt lat="45.99593" lon="6.69387">
        <ele>1818.9090576172</ele>
        <time>2017-04-29T07:37:27Z</time>
      </trkpt>
      <trkpt lat="45.99585" lon="6.69388">
        <ele>1821.4189453125</ele>
        <time>2017-04-29T07:37:42Z</time>
      </trkpt>
      <trkpt lat="45.99578" lon="6.6939">
        <ele>1823.8929443359</ele>
        <time>2017-04-29T07:37:57Z</time>
      </trkpt>
      <trkpt lat="45.99571" lon="6.69393">
        <ele>1825.4189453125</ele>
        <time>2017-04-29T07:38:12Z</time>
      </trkpt>
      <trkpt lat="45.99563" lon="6.69393">
        <ele>1827.4790039062</ele>
        <time>2017-04-29T07:38:29Z</time>
      </trkpt>
      <trkpt lat="45.99558" lon="6.69401">
        <ele>1829.3389892578</ele>
        <time>2017-04-29T07:38:40Z</time>
      </trkpt>
      <trkpt lat="45.99562" lon="6.69412">
        <ele>1831.9659423828</ele>
        <time>2017-04-29T07:38:52Z</time>
      </trkpt>
      <trkpt lat="45.99559" lon="6.69422">
        <ele>1833.45703125</ele>
        <time>2017-04-29T07:39:03Z</time>
      </trkpt>
      <trkpt lat="45.99557" lon="6.69432">
        <ele>1834.8819580078</ele>
        <time>2017-04-29T07:39:16Z</time>
      </trkpt>
      <trkpt lat="45.99557" lon="6.69443">
        <ele>1836.1059570312</ele>
        <time>2017-04-29T07:39:25Z</time>
      </trkpt>
      <trkpt lat="45.99556" lon="6.69455">
        <ele>1838.0260009766</ele>
        <time>2017-04-29T07:39:38Z</time>
      </trkpt>
      <trkpt lat="45.99554" lon="6.69465">
        <ele>1838.8530273438</ele>
        <time>2017-04-29T07:39:50Z</time>
      </trkpt>
      <trkpt lat="45.99553" lon="6.69476">
        <ele>1840.7399902344</ele>
        <time>2017-04-29T07:40:05Z</time>
      </trkpt>
      <trkpt lat="45.99557" lon="6.69485">
        <ele>1842.2650146484</ele>
        <time>2017-04-29T07:40:18Z</time>
      </trkpt>
      <trkpt lat="45.99563" lon="6.69491">
        <ele>1844.3969726562</ele>
        <time>2017-04-29T07:40:29Z</time>
      </trkpt>
      <trkpt lat="45.9957" lon="6.69494">
        <ele>1846.8800048828</ele>
        <time>2017-04-29T07:40:45Z</time>
      </trkpt>
      <trkpt lat="45.99572" lon="6.69504">
        <ele>1849.6120605469</ele>
        <time>2017-04-29T07:41:11Z</time>
      </trkpt>
      <trkpt lat="45.99578" lon="6.69512">
        <ele>1850.8570556641</ele>
        <time>2017-04-29T07:41:21Z</time>
      </trkpt>
      <trkpt lat="45.99572" lon="6.69519">
        <ele>1851.7249755859</ele>
        <time>2017-04-29T07:41:38Z</time>
      </trkpt>
      <trkpt lat="45.99566" lon="6.69526">
        <ele>1852.7459716797</ele>
        <time>2017-04-29T07:41:57Z</time>
      </trkpt>
      <trkpt lat="45.99564" lon="6.69535">
        <ele>1854.6839599609</ele>
        <time>2017-04-29T07:42:11Z</time>
      </trkpt>
      <trkpt lat="45.99567" lon="6.69546">
        <ele>1859.3179931641</ele>
        <time>2017-04-29T07:43:58Z</time>
      </trkpt>
      <trkpt lat="45.99572" lon="6.69554">
        <ele>1860.2209472656</ele>
        <time>2017-04-29T07:44:06Z</time>
      </trkpt>
      <trkpt lat="45.99578" lon="6.6956">
        <ele>1862.6330566406</ele>
        <time>2017-04-29T07:44:19Z</time>
      </trkpt>
      <trkpt lat="45.99585" lon="6.69565">
        <ele>1864.1479492188</ele>
        <time>2017-04-29T07:44:31Z</time>
      </trkpt>
      <trkpt lat="45.99585" lon="6.69576">
        <ele>1865.3890380859</ele>
        <time>2017-04-29T07:44:41Z</time>
      </trkpt>
      <trkpt lat="45.99585" lon="6.69588">
        <ele>1867.2600097656</ele>
        <time>2017-04-29T07:44:59Z</time>
      </trkpt>
      <trkpt lat="45.9958" lon="6.69596">
        <ele>1867.9119873047</ele>
        <time>2017-04-29T07:45:06Z</time>
      </trkpt>
      <trkpt lat="45.99576" lon="6.69605">
        <ele>1870.0389404297</ele>
        <time>2017-04-29T07:45:17Z</time>
      </trkpt>
      <trkpt lat="45.99573" lon="6.69615">
        <ele>1871.6379394531</ele>
        <time>2017-04-29T07:45:25Z</time>
      </trkpt>
      <trkpt lat="45.99568" lon="6.69624">
        <ele>1874.0739746094</ele>
        <time>2017-04-29T07:45:38Z</time>
      </trkpt>
      <trkpt lat="45.99564" lon="6.69634">
        <ele>1876.1629638672</ele>
        <time>2017-04-29T07:45:47Z</time>
      </trkpt>
      <trkpt lat="45.99562" lon="6.69644">
        <ele>1878.5489501953</ele>
        <time>2017-04-29T07:45:59Z</time>
      </trkpt>
      <trkpt lat="45.99556" lon="6.69652">
        <ele>1880.7320556641</ele>
        <time>2017-04-29T07:46:12Z</time>
      </trkpt>
      <trkpt lat="45.99551" lon="6.6966">
        <ele>1882.2600097656</ele>
        <time>2017-04-29T07:46:23Z</time>
      </trkpt>
      <trkpt lat="45.99546" lon="6.69668">
        <ele>1883.6560058594</ele>
        <time>2017-04-29T07:46:34Z</time>
      </trkpt>
      <trkpt lat="45.9954" lon="6.69676">
        <ele>1885.7459716797</ele>
        <time>2017-04-29T07:46:46Z</time>
      </trkpt>
      <trkpt lat="45.99534" lon="6.69682">
        <ele>1886.7280273438</ele>
        <time>2017-04-29T07:46:58Z</time>
      </trkpt>
      <trkpt lat="45.99527" lon="6.69687">
        <ele>1887.9689941406</ele>
        <time>2017-04-29T07:47:11Z</time>
      </trkpt>
      <trkpt lat="45.99519" lon="6.69687">
        <ele>1889.5080566406</ele>
        <time>2017-04-29T07:47:23Z</time>
      </trkpt>
      <trkpt lat="45.99511" lon="6.6969">
        <ele>1890.2800292969</ele>
        <time>2017-04-29T07:47:36Z</time>
      </trkpt>
      <trkpt lat="45.99509" lon="6.697">
        <ele>1891.123046875</ele>
        <time>2017-04-29T07:47:51Z</time>
      </trkpt>
      <trkpt lat="45.99507" lon="6.69711">
        <ele>1893.0939941406</ele>
        <time>2017-04-29T07:48:07Z</time>
      </trkpt>
      <trkpt lat="45.99504" lon="6.69721">
        <ele>1895.4820556641</ele>
        <time>2017-04-29T07:48:18Z</time>
      </trkpt>
      <trkpt lat="45.99501" lon="6.69731">
        <ele>1899.3499755859</ele>
        <time>2017-04-29T07:48:33Z</time>
      </trkpt>
      <trkpt lat="45.99494" lon="6.69734">
        <ele>1902.7490234375</ele>
        <time>2017-04-29T07:48:47Z</time>
      </trkpt>
      <trkpt lat="45.99487" lon="6.6973">
        <ele>1904.6070556641</ele>
        <time>2017-04-29T07:49:01Z</time>
      </trkpt>
      <trkpt lat="45.99479" lon="6.69731">
        <ele>1906.1300048828</ele>
        <time>2017-04-29T07:49:15Z</time>
      </trkpt>
      <trkpt lat="45.99476" lon="6.69741">
        <ele>1909.3699951172</ele>
        <time>2017-04-29T07:49:33Z</time>
      </trkpt>
      <trkpt lat="45.9947" lon="6.69748">
        <ele>1911.3969726562</ele>
        <time>2017-04-29T07:49:44Z</time>
      </trkpt>
      <trkpt lat="45.99464" lon="6.69754">
        <ele>1911.6899414062</ele>
        <time>2017-04-29T07:49:56Z</time>
      </trkpt>
      <trkpt lat="45.99457" lon="6.69751">
        <ele>1913.0699462891</ele>
        <time>2017-04-29T07:50:13Z</time>
      </trkpt>
      <trkpt lat="45.9945" lon="6.69759">
        <ele>1914.8509521484</ele>
        <time>2017-04-29T07:50:35Z</time>
      </trkpt>
      <trkpt lat="45.99443" lon="6.69763">
        <ele>1915.1309814453</ele>
        <time>2017-04-29T07:50:40Z</time>
      </trkpt>
      <trkpt lat="45.99436" lon="6.69768">
        <ele>1916.2320556641</ele>
        <time>2017-04-29T07:50:49Z</time>
      </trkpt>
      <trkpt lat="45.99429" lon="6.69773">
        <ele>1917.0589599609</ele>
        <time>2017-04-29T07:50:56Z</time>
      </trkpt>
      <trkpt lat="45.99422" lon="6.69775">
        <ele>1917.7969970703</ele>
        <time>2017-04-29T07:51:04Z</time>
      </trkpt>
      <trkpt lat="45.99414" lon="6.69777">
        <ele>1918.2220458984</ele>
        <time>2017-04-29T07:51:10Z</time>
      </trkpt>
      <trkpt lat="45.99406" lon="6.69779">
        <ele>1918.8990478516</ele>
        <time>2017-04-29T07:51:22Z</time>
      </trkpt>
      <trkpt lat="45.99399" lon="6.69778">
        <ele>1919.1409912109</ele>
        <time>2017-04-29T07:51:30Z</time>
      </trkpt>
      <trkpt lat="45.99392" lon="6.69783">
        <ele>1919.4499511719</ele>
        <time>2017-04-29T07:51:41Z</time>
      </trkpt>
      <trkpt lat="45.99385" lon="6.69786">
        <ele>1920.4899902344</ele>
        <time>2017-04-29T07:51:53Z</time>
      </trkpt>
      <trkpt lat="45.9938" lon="6.69795">
        <ele>1920.8580322266</ele>
        <time>2017-04-29T07:52:02Z</time>
      </trkpt>
      <trkpt lat="45.99373" lon="6.69801">
        <ele>1921.6920166016</ele>
        <time>2017-04-29T07:52:13Z</time>
      </trkpt>
      <trkpt lat="45.99367" lon="6.69808">
        <ele>1924.2600097656</ele>
        <time>2017-04-29T07:52:29Z</time>
      </trkpt>
      <trkpt lat="45.99365" lon="6.69818">
        <ele>1927.5780029297</ele>
        <time>2017-04-29T07:52:42Z</time>
      </trkpt>
      <trkpt lat="45.99364" lon="6.69829">
        <ele>1931.2669677734</ele>
        <time>2017-04-29T07:52:56Z</time>
      </trkpt>
      <trkpt lat="45.99359" lon="6.69837">
        <ele>1931.9749755859</ele>
        <time>2017-04-29T07:53:09Z</time>
      </trkpt>
      <trkpt lat="45.99354" lon="6.69844">
        <ele>1935.3439941406</ele>
        <time>2017-04-29T07:53:29Z</time>
      </trkpt>
      <trkpt lat="45.99346" lon="6.69848">
        <ele>1940.0179443359</ele>
        <time>2017-04-29T07:53:51Z</time>
      </trkpt>
      <trkpt lat="45.9934" lon="6.69855">
        <ele>1941.7340087891</ele>
        <time>2017-04-29T07:54:03Z</time>
      </trkpt>
      <trkpt lat="45.99334" lon="6.69861">
        <ele>1942.4709472656</ele>
        <time>2017-04-29T07:54:16Z</time>
      </trkpt>
      <trkpt lat="45.99328" lon="6.69866">
        <ele>1945.2860107422</ele>
        <time>2017-04-29T07:54:30Z</time>
      </trkpt>
      <trkpt lat="45.99323" lon="6.69874">
        <ele>1947.2700195312</ele>
        <time>2017-04-29T07:54:44Z</time>
      </trkpt>
      <trkpt lat="45.99317" lon="6.69881">
        <ele>1950.3110351562</ele>
        <time>2017-04-29T07:54:58Z</time>
      </trkpt>
      <trkpt lat="45.99312" lon="6.69889">
        <ele>1952.5229492188</ele>
        <time>2017-04-29T07:55:12Z</time>
      </trkpt>
      <trkpt lat="45.99307" lon="6.69896">
        <ele>1955.1529541016</ele>
        <time>2017-04-29T07:55:24Z</time>
      </trkpt>
      <trkpt lat="45.99302" lon="6.69904">
        <ele>1955.2889404297</ele>
        <time>2017-04-29T07:55:35Z</time>
      </trkpt>
      <trkpt lat="45.99297" lon="6.69913">
        <ele>1955.8580322266</ele>
        <time>2017-04-29T07:55:50Z</time>
      </trkpt>
      <trkpt lat="45.99292" lon="6.69921">
        <ele>1955.9260253906</ele>
        <time>2017-04-29T07:56:05Z</time>
      </trkpt>
      <trkpt lat="45.99288" lon="6.6993">
        <ele>1960.7189941406</ele>
        <time>2017-04-29T07:56:27Z</time>
      </trkpt>
      <trkpt lat="45.99283" lon="6.69938">
        <ele>1963.3559570312</ele>
        <time>2017-04-29T07:56:38Z</time>
      </trkpt>
      <trkpt lat="45.9928" lon="6.69948">
        <ele>1966.8499755859</ele>
        <time>2017-04-29T07:56:54Z</time>
      </trkpt>
      <trkpt lat="45.99275" lon="6.69956">
        <ele>1968.9899902344</ele>
        <time>2017-04-29T07:57:07Z</time>
      </trkpt>
      <trkpt lat="45.99272" lon="6.69966">
        <ele>1970.3480224609</ele>
        <time>2017-04-29T07:57:20Z</time>
      </trkpt>
      <trkpt lat="45.99266" lon="6.69973">
        <ele>1972.9659423828</ele>
        <time>2017-04-29T07:57:35Z</time>
      </trkpt>
      <trkpt lat="45.99261" lon="6.6998">
        <ele>1975.4279785156</ele>
        <time>2017-04-29T07:57:50Z</time>
      </trkpt>
      <trkpt lat="45.99254" lon="6.69985">
        <ele>1976.8940429688</ele>
        <time>2017-04-29T07:58:00Z</time>
      </trkpt>
      <trkpt lat="45.9925" lon="6.69994">
        <ele>1981.0870361328</ele>
        <time>2017-04-29T07:58:16Z</time>
      </trkpt>
      <trkpt lat="45.99244" lon="6.69998">
        <ele>1983.6459960938</ele>
        <time>2017-04-29T07:58:32Z</time>
      </trkpt>
      <trkpt lat="45.99236" lon="6.69999">
        <ele>1983.9329833984</ele>
        <time>2017-04-29T07:58:46Z</time>
      </trkpt>
      <trkpt lat="45.99229" lon="6.69997">
        <ele>1984.8690185547</ele>
        <time>2017-04-29T07:59:00Z</time>
      </trkpt>
      <trkpt lat="45.99223" lon="6.70003">
        <ele>1986.4639892578</ele>
        <time>2017-04-29T07:59:20Z</time>
      </trkpt>
      <trkpt lat="45.9922" lon="6.70013">
        <ele>1986.9990234375</ele>
        <time>2017-04-29T07:59:35Z</time>
      </trkpt>
      <trkpt lat="45.99217" lon="6.70022">
        <ele>1991.9510498047</ele>
        <time>2017-04-29T07:59:55Z</time>
      </trkpt>
      <trkpt lat="45.99212" lon="6.70031">
        <ele>1995.1970214844</ele>
        <time>2017-04-29T08:00:07Z</time>
      </trkpt>
      <trkpt lat="45.99207" lon="6.70038">
        <ele>1998.0629882812</ele>
        <time>2017-04-29T08:00:23Z</time>
      </trkpt>
      <trkpt lat="45.99199" lon="6.70037">
        <ele>1998.9229736328</ele>
        <time>2017-04-29T08:00:36Z</time>
      </trkpt>
      <trkpt lat="45.99192" lon="6.70034">
        <ele>2000.5739746094</ele>
        <time>2017-04-29T08:00:51Z</time>
      </trkpt>
      <trkpt lat="45.99185" lon="6.70034">
        <ele>2001.3520507812</ele>
        <time>2017-04-29T08:01:04Z</time>
      </trkpt>
      <trkpt lat="45.99178" lon="6.70038">
        <ele>2005.4739990234</ele>
        <time>2017-04-29T08:01:28Z</time>
      </trkpt>
      <trkpt lat="45.99172" lon="6.70045">
        <ele>2009.2049560547</ele>
        <time>2017-04-29T08:01:42Z</time>
      </trkpt>
      <trkpt lat="45.99165" lon="6.7005">
        <ele>2012.1330566406</ele>
        <time>2017-04-29T08:03:52Z</time>
      </trkpt>
      <trkpt lat="45.99159" lon="6.70057">
        <ele>2008.7860107422</ele>
        <time>2017-04-29T08:12:40Z</time>
      </trkpt>
      <trkpt lat="45.99153" lon="6.70065">
        <ele>2009.3830566406</ele>
        <time>2017-04-29T08:12:54Z</time>
      </trkpt>
      <trkpt lat="45.99146" lon="6.70072">
        <ele>2010.4520263672</ele>
        <time>2017-04-29T08:13:05Z</time>
      </trkpt>
      <trkpt lat="45.99141" lon="6.70079">
        <ele>2011.123046875</ele>
        <time>2017-04-29T08:13:20Z</time>
      </trkpt>
      <trkpt lat="45.99138" lon="6.70089">
        <ele>2011.1770019531</ele>
        <time>2017-04-29T08:13:30Z</time>
      </trkpt>
      <trkpt lat="45.99133" lon="6.70096">
        <ele>2011.5880126953</ele>
        <time>2017-04-29T08:13:42Z</time>
      </trkpt>
      <trkpt lat="45.99125" lon="6.70096">
        <ele>2013.3480224609</ele>
        <time>2017-04-29T08:13:56Z</time>
      </trkpt>
      <trkpt lat="45.99117" lon="6.70099">
        <ele>2016.2399902344</ele>
        <time>2017-04-29T08:14:09Z</time>
      </trkpt>
      <trkpt lat="45.9911" lon="6.70103">
        <ele>2017.8929443359</ele>
        <time>2017-04-29T08:14:21Z</time>
      </trkpt>
      <trkpt lat="45.99105" lon="6.70109">
        <ele>2018.5789794922</ele>
        <time>2017-04-29T08:14:32Z</time>
      </trkpt>
      <trkpt lat="45.99102" lon="6.7012">
        <ele>2019.5100097656</ele>
        <time>2017-04-29T08:14:44Z</time>
      </trkpt>
      <trkpt lat="45.99097" lon="6.70129">
        <ele>2020.2430419922</ele>
        <time>2017-04-29T08:14:58Z</time>
      </trkpt>
      <trkpt lat="45.99091" lon="6.70135">
        <ele>2020.9709472656</ele>
        <time>2017-04-29T08:15:09Z</time>
      </trkpt>
      <trkpt lat="45.99089" lon="6.70145">
        <ele>2021.5419921875</ele>
        <time>2017-04-29T08:15:20Z</time>
      </trkpt>
      <trkpt lat="45.99082" lon="6.7015">
        <ele>2023.0059814453</ele>
        <time>2017-04-29T08:15:37Z</time>
      </trkpt>
      <trkpt lat="45.99074" lon="6.70148">
        <ele>2027.8900146484</ele>
        <time>2017-04-29T08:15:52Z</time>
      </trkpt>
      <trkpt lat="45.99067" lon="6.70147">
        <ele>2030.5980224609</ele>
        <time>2017-04-29T08:16:03Z</time>
      </trkpt>
      <trkpt lat="45.99062" lon="6.70154">
        <ele>2032.6910400391</ele>
        <time>2017-04-29T08:16:17Z</time>
      </trkpt>
      <trkpt lat="45.99059" lon="6.70163">
        <ele>2033.8139648438</ele>
        <time>2017-04-29T08:16:30Z</time>
      </trkpt>
      <trkpt lat="45.99056" lon="6.70173">
        <ele>2034.0970458984</ele>
        <time>2017-04-29T08:16:40Z</time>
      </trkpt>
      <trkpt lat="45.99053" lon="6.70183">
        <ele>2034.8389892578</ele>
        <time>2017-04-29T08:16:53Z</time>
      </trkpt>
      <trkpt lat="45.9905" lon="6.70193">
        <ele>2036.9699707031</ele>
        <time>2017-04-29T08:17:08Z</time>
      </trkpt>
      <trkpt lat="45.99048" lon="6.70203">
        <ele>2039.5260009766</ele>
        <time>2017-04-29T08:17:21Z</time>
      </trkpt>
      <trkpt lat="45.99047" lon="6.70214">
        <ele>2042.5240478516</ele>
        <time>2017-04-29T08:17:36Z</time>
      </trkpt>
      <trkpt lat="45.99042" lon="6.70222">
        <ele>2044.7700195312</ele>
        <time>2017-04-29T08:17:54Z</time>
      </trkpt>
      <trkpt lat="45.99035" lon="6.70227">
        <ele>2047.5369873047</ele>
        <time>2017-04-29T08:18:07Z</time>
      </trkpt>
      <trkpt lat="45.99027" lon="6.70226">
        <ele>2049.6630859375</ele>
        <time>2017-04-29T08:18:23Z</time>
      </trkpt>
      <trkpt lat="45.99021" lon="6.70233">
        <ele>2055.791015625</ele>
        <time>2017-04-29T08:19:06Z</time>
      </trkpt>
      <trkpt lat="45.99015" lon="6.70238">
        <ele>2057.9299316406</ele>
        <time>2017-04-29T08:19:17Z</time>
      </trkpt>
      <trkpt lat="45.9901" lon="6.70247">
        <ele>2059.2509765625</ele>
        <time>2017-04-29T08:19:27Z</time>
      </trkpt>
      <trkpt lat="45.99007" lon="6.70256">
        <ele>2061.3100585938</ele>
        <time>2017-04-29T08:19:40Z</time>
      </trkpt>
      <trkpt lat="45.99002" lon="6.70265">
        <ele>2063.1630859375</ele>
        <time>2017-04-29T08:19:54Z</time>
      </trkpt>
      <trkpt lat="45.98997" lon="6.70272">
        <ele>2064.9431152344</ele>
        <time>2017-04-29T08:20:09Z</time>
      </trkpt>
      <trkpt lat="45.98992" lon="6.70281">
        <ele>2067.2438964844</ele>
        <time>2017-04-29T08:20:22Z</time>
      </trkpt>
      <trkpt lat="45.98988" lon="6.70289">
        <ele>2069.5458984375</ele>
        <time>2017-04-29T08:20:35Z</time>
      </trkpt>
      <trkpt lat="45.98982" lon="6.70297">
        <ele>2071.7009277344</ele>
        <time>2017-04-29T08:20:50Z</time>
      </trkpt>
      <trkpt lat="45.98975" lon="6.703">
        <ele>2074.2119140625</ele>
        <time>2017-04-29T08:21:15Z</time>
      </trkpt>
      <trkpt lat="45.98968" lon="6.70302">
        <ele>2076.9060058594</ele>
        <time>2017-04-29T08:21:35Z</time>
      </trkpt>
      <trkpt lat="45.9896" lon="6.70301">
        <ele>2078.6149902344</ele>
        <time>2017-04-29T08:21:48Z</time>
      </trkpt>
      <trkpt lat="45.98952" lon="6.70302">
        <ele>2080.7250976562</ele>
        <time>2017-04-29T08:22:03Z</time>
      </trkpt>
      <trkpt lat="45.98946" lon="6.70308">
        <ele>2082.1999511719</ele>
        <time>2017-04-29T08:22:19Z</time>
      </trkpt>
      <trkpt lat="45.98939" lon="6.70313">
        <ele>2083.6359863281</ele>
        <time>2017-04-29T08:22:31Z</time>
      </trkpt>
      <trkpt lat="45.98932" lon="6.70318">
        <ele>2084.87890625</ele>
        <time>2017-04-29T08:22:44Z</time>
      </trkpt>
      <trkpt lat="45.98926" lon="6.70324">
        <ele>2086.6149902344</ele>
        <time>2017-04-29T08:22:56Z</time>
      </trkpt>
      <trkpt lat="45.98924" lon="6.70334">
        <ele>2087.6350097656</ele>
        <time>2017-04-29T08:23:06Z</time>
      </trkpt>
      <trkpt lat="45.9892" lon="6.70343">
        <ele>2089.0109863281</ele>
        <time>2017-04-29T08:23:20Z</time>
      </trkpt>
      <trkpt lat="45.98916" lon="6.70352">
        <ele>2090.8720703125</ele>
        <time>2017-04-29T08:23:32Z</time>
      </trkpt>
      <trkpt lat="45.98912" lon="6.70361">
        <ele>2092.8168945312</ele>
        <time>2017-04-29T08:23:46Z</time>
      </trkpt>
      <trkpt lat="45.98908" lon="6.7037">
        <ele>2093.7451171875</ele>
        <time>2017-04-29T08:23:57Z</time>
      </trkpt>
      <trkpt lat="45.98903" lon="6.70378">
        <ele>2095.169921875</ele>
        <time>2017-04-29T08:24:12Z</time>
      </trkpt>
      <trkpt lat="45.98897" lon="6.70385">
        <ele>2096.7250976562</ele>
        <time>2017-04-29T08:24:23Z</time>
      </trkpt>
      <trkpt lat="45.98892" lon="6.70393">
        <ele>2099.6330566406</ele>
        <time>2017-04-29T08:24:36Z</time>
      </trkpt>
      <trkpt lat="45.98885" lon="6.70397">
        <ele>2102.3640136719</ele>
        <time>2017-04-29T08:24:48Z</time>
      </trkpt>
      <trkpt lat="45.98878" lon="6.70399">
        <ele>2106.5581054688</ele>
        <time>2017-04-29T08:25:06Z</time>
      </trkpt>
      <trkpt lat="45.98871" lon="6.70404">
        <ele>2108.4880371094</ele>
        <time>2017-04-29T08:25:16Z</time>
      </trkpt>
      <trkpt lat="45.98865" lon="6.7041">
        <ele>2110.7919921875</ele>
        <time>2017-04-29T08:25:31Z</time>
      </trkpt>
      <trkpt lat="45.98859" lon="6.70417">
        <ele>2112.5029296875</ele>
        <time>2017-04-29T08:25:44Z</time>
      </trkpt>
      <trkpt lat="45.98852" lon="6.70421">
        <ele>2112.5161132812</ele>
        <time>2017-04-29T08:25:59Z</time>
      </trkpt>
      <trkpt lat="45.98846" lon="6.70426">
        <ele>2114.5080566406</ele>
        <time>2017-04-29T08:26:12Z</time>
      </trkpt>
      <trkpt lat="45.98839" lon="6.70432">
        <ele>2115.5270996094</ele>
        <time>2017-04-29T08:26:27Z</time>
      </trkpt>
      <trkpt lat="45.98832" lon="6.70436">
        <ele>2116.9541015625</ele>
        <time>2017-04-29T08:26:39Z</time>
      </trkpt>
      <trkpt lat="45.98826" lon="6.70442">
        <ele>2118.9079589844</ele>
        <time>2017-04-29T08:26:55Z</time>
      </trkpt>
      <trkpt lat="45.98821" lon="6.7045">
        <ele>2120.9528808594</ele>
        <time>2017-04-29T08:27:08Z</time>
      </trkpt>
      <trkpt lat="45.98814" lon="6.70456">
        <ele>2124.5219726562</ele>
        <time>2017-04-29T08:27:25Z</time>
      </trkpt>
      <trkpt lat="45.98808" lon="6.70463">
        <ele>2126.3530273438</ele>
        <time>2017-04-29T08:27:35Z</time>
      </trkpt>
      <trkpt lat="45.98802" lon="6.70468">
        <ele>2129.1989746094</ele>
        <time>2017-04-29T08:27:50Z</time>
      </trkpt>
      <trkpt lat="45.98795" lon="6.70474">
        <ele>2132.1069335938</ele>
        <time>2017-04-29T08:28:06Z</time>
      </trkpt>
      <trkpt lat="45.9879" lon="6.70481">
        <ele>2133.2351074219</ele>
        <time>2017-04-29T08:28:20Z</time>
      </trkpt>
      <trkpt lat="45.98782" lon="6.70486">
        <ele>2135.3491210938</ele>
        <time>2017-04-29T08:28:35Z</time>
      </trkpt>
      <trkpt lat="45.98775" lon="6.70488">
        <ele>2137.0139160156</ele>
        <time>2017-04-29T08:28:52Z</time>
      </trkpt>
      <trkpt lat="45.98768" lon="6.70493">
        <ele>2141.0329589844</ele>
        <time>2017-04-29T08:29:08Z</time>
      </trkpt>
      <trkpt lat="45.98761" lon="6.70497">
        <ele>2143.8920898438</ele>
        <time>2017-04-29T08:29:22Z</time>
      </trkpt>
      <trkpt lat="45.98755" lon="6.70501">
        <ele>2147.1909179688</ele>
        <time>2017-04-29T08:29:38Z</time>
      </trkpt>
      <trkpt lat="45.98749" lon="6.70509">
        <ele>2150.4079589844</ele>
        <time>2017-04-29T08:29:52Z</time>
      </trkpt>
      <trkpt lat="45.98742" lon="6.70512">
        <ele>2154.080078125</ele>
        <time>2017-04-29T08:30:06Z</time>
      </trkpt>
      <trkpt lat="45.98735" lon="6.70516">
        <ele>2156.83203125</ele>
        <time>2017-04-29T08:30:29Z</time>
      </trkpt>
      <trkpt lat="45.98728" lon="6.70521">
        <ele>2159.3168945312</ele>
        <time>2017-04-29T08:30:40Z</time>
      </trkpt>
      <trkpt lat="45.98721" lon="6.70523">
        <ele>2160.0849609375</ele>
        <time>2017-04-29T08:30:53Z</time>
      </trkpt>
      <trkpt lat="45.98713" lon="6.70521">
        <ele>2160.2141113281</ele>
        <time>2017-04-29T08:31:02Z</time>
      </trkpt>
      <trkpt lat="45.98706" lon="6.7052">
        <ele>2162.6298828125</ele>
        <time>2017-04-29T08:31:16Z</time>
      </trkpt>
      <trkpt lat="45.98698" lon="6.70522">
        <ele>2165.1169433594</ele>
        <time>2017-04-29T08:31:33Z</time>
      </trkpt>
      <trkpt lat="45.98691" lon="6.70525">
        <ele>2165.0290527344</ele>
        <time>2017-04-29T08:31:45Z</time>
      </trkpt>
      <trkpt lat="45.98684" lon="6.70527">
        <ele>2165.4970703125</ele>
        <time>2017-04-29T08:31:56Z</time>
      </trkpt>
      <trkpt lat="45.98678" lon="6.70534">
        <ele>2166.5249023438</ele>
        <time>2017-04-29T08:32:09Z</time>
      </trkpt>
      <trkpt lat="45.98671" lon="6.70538">
        <ele>2168.6640625</ele>
        <time>2017-04-29T08:32:20Z</time>
      </trkpt>
      <trkpt lat="45.98664" lon="6.70537">
        <ele>2170.8840332031</ele>
        <time>2017-04-29T08:32:34Z</time>
      </trkpt>
      <trkpt lat="45.98656" lon="6.70536">
        <ele>2171.9619140625</ele>
        <time>2017-04-29T08:32:48Z</time>
      </trkpt>
      <trkpt lat="45.9865" lon="6.70541">
        <ele>2173.4309082031</ele>
        <time>2017-04-29T08:32:59Z</time>
      </trkpt>
      <trkpt lat="45.98642" lon="6.70544">
        <ele>2175.169921875</ele>
        <time>2017-04-29T08:33:11Z</time>
      </trkpt>
      <trkpt lat="45.98635" lon="6.70548">
        <ele>2176.8500976562</ele>
        <time>2017-04-29T08:33:26Z</time>
      </trkpt>
      <trkpt lat="45.98628" lon="6.7055">
        <ele>2177.162109375</ele>
        <time>2017-04-29T08:33:41Z</time>
      </trkpt>
      <trkpt lat="45.98621" lon="6.70555">
        <ele>2178.3168945312</ele>
        <time>2017-04-29T08:33:54Z</time>
      </trkpt>
      <trkpt lat="45.98614" lon="6.70554">
        <ele>2179.3400878906</ele>
        <time>2017-04-29T08:34:06Z</time>
      </trkpt>
      <trkpt lat="45.98606" lon="6.70553">
        <ele>2180</ele>
        <time>2017-04-29T08:34:16Z</time>
      </trkpt>
      <trkpt lat="45.98599" lon="6.70555">
        <ele>2182.3110351562</ele>
        <time>2017-04-29T08:34:36Z</time>
      </trkpt>
      <trkpt lat="45.98592" lon="6.70557">
        <ele>2184.3659667969</ele>
        <time>2017-04-29T08:34:50Z</time>
      </trkpt>
      <trkpt lat="45.98584" lon="6.70553">
        <ele>2186.8811035156</ele>
        <time>2017-04-29T08:35:02Z</time>
      </trkpt>
      <trkpt lat="45.98578" lon="6.70548">
        <ele>2189.2028808594</ele>
        <time>2017-04-29T08:35:13Z</time>
      </trkpt>
      <trkpt lat="45.98571" lon="6.70546">
        <ele>2191.751953125</ele>
        <time>2017-04-29T08:35:25Z</time>
      </trkpt>
      <trkpt lat="45.98563" lon="6.70548">
        <ele>2194.54296875</ele>
        <time>2017-04-29T08:35:43Z</time>
      </trkpt>
      <trkpt lat="45.98555" lon="6.7055">
        <ele>2194.7919921875</ele>
        <time>2017-04-29T08:35:51Z</time>
      </trkpt>
      <trkpt lat="45.98548" lon="6.70554">
        <ele>2196.6010742188</ele>
        <time>2017-04-29T08:36:07Z</time>
      </trkpt>
      <trkpt lat="45.9854" lon="6.70555">
        <ele>2199.2690429688</ele>
        <time>2017-04-29T08:36:21Z</time>
      </trkpt>
      <trkpt lat="45.98532" lon="6.70556">
        <ele>2200.3950195312</ele>
        <time>2017-04-29T08:36:34Z</time>
      </trkpt>
      <trkpt lat="45.98524" lon="6.70558">
        <ele>2201.205078125</ele>
        <time>2017-04-29T08:36:44Z</time>
      </trkpt>
      <trkpt lat="45.98518" lon="6.70552">
        <ele>2202.4819335938</ele>
        <time>2017-04-29T08:36:55Z</time>
      </trkpt>
      <trkpt lat="45.98521" lon="6.70561">
        <ele>2200.3139648438</ele>
        <time>2017-04-29T08:37:34Z</time>
      </trkpt>
      <trkpt lat="45.98516" lon="6.70551">
        <ele>2200.3679199219</ele>
        <time>2017-04-29T08:38:37Z</time>
      </trkpt>
      <trkpt lat="45.9851" lon="6.70543">
        <ele>2200.6320800781</ele>
        <time>2017-04-29T08:38:43Z</time>
      </trkpt>
      <trkpt lat="45.98505" lon="6.70536">
        <ele>2200.0629882812</ele>
        <time>2017-04-29T08:38:51Z</time>
      </trkpt>
      <trkpt lat="45.985" lon="6.70527">
        <ele>2199.4409179688</ele>
        <time>2017-04-29T08:39:00Z</time>
      </trkpt>
      <trkpt lat="45.98495" lon="6.7052">
        <ele>2200.8920898438</ele>
        <time>2017-04-29T08:39:13Z</time>
      </trkpt>
      <trkpt lat="45.98489" lon="6.70512">
        <ele>2203.3720703125</ele>
        <time>2017-04-29T08:39:29Z</time>
      </trkpt>
      <trkpt lat="45.98484" lon="6.70505">
        <ele>2205.669921875</ele>
        <time>2017-04-29T08:39:39Z</time>
      </trkpt>
      <trkpt lat="45.98478" lon="6.70498">
        <ele>2208.625</ele>
        <time>2017-04-29T08:39:54Z</time>
      </trkpt>
      <trkpt lat="45.98471" lon="6.70494">
        <ele>2212.7351074219</ele>
        <time>2017-04-29T08:40:16Z</time>
      </trkpt>
      <trkpt lat="45.98465" lon="6.70487">
        <ele>2214.0029296875</ele>
        <time>2017-04-29T08:40:34Z</time>
      </trkpt>
      <trkpt lat="45.98459" lon="6.7048">
        <ele>2213.0500488281</ele>
        <time>2017-04-29T08:40:51Z</time>
      </trkpt>
      <trkpt lat="45.98452" lon="6.70476">
        <ele>2212.4169921875</ele>
        <time>2017-04-29T08:41:13Z</time>
      </trkpt>
      <trkpt lat="45.98446" lon="6.70473">
        <ele>2212.2780761719</ele>
        <time>2017-04-29T08:41:25Z</time>
      </trkpt>
      <trkpt lat="45.9844" lon="6.70467">
        <ele>2212.5700683594</ele>
        <time>2017-04-29T08:41:31Z</time>
      </trkpt>
      <trkpt lat="45.98433" lon="6.70463">
        <ele>2214.20703125</ele>
        <time>2017-04-29T08:41:50Z</time>
      </trkpt>
      <trkpt lat="45.98425" lon="6.70466">
        <ele>2215.8349609375</ele>
        <time>2017-04-29T08:42:03Z</time>
      </trkpt>
      <trkpt lat="45.98418" lon="6.70466">
        <ele>2216.6909179688</ele>
        <time>2017-04-29T08:42:17Z</time>
      </trkpt>
      <trkpt lat="45.98412" lon="6.7046">
        <ele>2217.4079589844</ele>
        <time>2017-04-29T08:42:26Z</time>
      </trkpt>
      <trkpt lat="45.98399" lon="6.70447">
        <ele>2218.1760253906</ele>
        <time>2017-04-29T08:42:38Z</time>
      </trkpt>
      <trkpt lat="45.98392" lon="6.70448">
        <ele>2219.4079589844</ele>
        <time>2017-04-29T08:42:55Z</time>
      </trkpt>
      <trkpt lat="45.98383" lon="6.70445">
        <ele>2219.7919921875</ele>
        <time>2017-04-29T08:43:03Z</time>
      </trkpt>
      <trkpt lat="45.98377" lon="6.70439">
        <ele>2220.5549316406</ele>
        <time>2017-04-29T08:43:09Z</time>
      </trkpt>
      <trkpt lat="45.9837" lon="6.70433">
        <ele>2222.0959472656</ele>
        <time>2017-04-29T08:43:17Z</time>
      </trkpt>
      <trkpt lat="45.98362" lon="6.70434">
        <ele>2224.4680175781</ele>
        <time>2017-04-29T08:43:29Z</time>
      </trkpt>
      <trkpt lat="45.98355" lon="6.70431">
        <ele>2225.9040527344</ele>
        <time>2017-04-29T08:43:38Z</time>
      </trkpt>
      <trkpt lat="45.98348" lon="6.70427">
        <ele>2227.1860351562</ele>
        <time>2017-04-29T08:43:47Z</time>
      </trkpt>
      <trkpt lat="45.98341" lon="6.7042">
        <ele>2228.0229492188</ele>
        <time>2017-04-29T08:43:53Z</time>
      </trkpt>
      <trkpt lat="45.98336" lon="6.70413">
        <ele>2229.0668945312</ele>
        <time>2017-04-29T08:44:01Z</time>
      </trkpt>
      <trkpt lat="45.9833" lon="6.70404">
        <ele>2229.9289550781</ele>
        <time>2017-04-29T08:44:12Z</time>
      </trkpt>
      <trkpt lat="45.98325" lon="6.70396">
        <ele>2230.5029296875</ele>
        <time>2017-04-29T08:44:20Z</time>
      </trkpt>
      <trkpt lat="45.98319" lon="6.70388">
        <ele>2231.6079101562</ele>
        <time>2017-04-29T08:44:28Z</time>
      </trkpt>
      <trkpt lat="45.98308" lon="6.70374">
        <ele>2233.9899902344</ele>
        <time>2017-04-29T08:44:47Z</time>
      </trkpt>
      <trkpt lat="45.98303" lon="6.70365">
        <ele>2234.6088867188</ele>
        <time>2017-04-29T08:44:57Z</time>
      </trkpt>
      <trkpt lat="45.98297" lon="6.70357">
        <ele>2235.0170898438</ele>
        <time>2017-04-29T08:45:02Z</time>
      </trkpt>
      <trkpt lat="45.98292" lon="6.70348">
        <ele>2236.248046875</ele>
        <time>2017-04-29T08:45:13Z</time>
      </trkpt>
      <trkpt lat="45.98287" lon="6.7034">
        <ele>2236.4809570312</ele>
        <time>2017-04-29T08:45:19Z</time>
      </trkpt>
      <trkpt lat="45.98283" lon="6.70331">
        <ele>2237.0830078125</ele>
        <time>2017-04-29T08:45:28Z</time>
      </trkpt>
      <trkpt lat="45.98275" lon="6.70333">
        <ele>2239.0639648438</ele>
        <time>2017-04-29T08:46:00Z</time>
      </trkpt>
      <trkpt lat="45.98278" lon="6.70323">
        <ele>2239.4060058594</ele>
        <time>2017-04-29T08:46:08Z</time>
      </trkpt>
      <trkpt lat="45.98278" lon="6.70311">
        <ele>2239.1049804688</ele>
        <time>2017-04-29T08:46:19Z</time>
      </trkpt>
      <trkpt lat="45.98274" lon="6.70302">
        <ele>2239.3530273438</ele>
        <time>2017-04-29T08:46:29Z</time>
      </trkpt>
      <trkpt lat="45.98271" lon="6.70289">
        <ele>2238.8000488281</ele>
        <time>2017-04-29T08:46:39Z</time>
      </trkpt>
      <trkpt lat="45.98266" lon="6.70281">
        <ele>2238.6450195312</ele>
        <time>2017-04-29T08:46:47Z</time>
      </trkpt>
      <trkpt lat="45.98259" lon="6.7028">
        <ele>2238.99609375</ele>
        <time>2017-04-29T08:46:58Z</time>
      </trkpt>
      <trkpt lat="45.98252" lon="6.70284">
        <ele>2239.9650878906</ele>
        <time>2017-04-29T08:47:11Z</time>
      </trkpt>
      <trkpt lat="45.98247" lon="6.70276">
        <ele>2240.5419921875</ele>
        <time>2017-04-29T08:47:36Z</time>
      </trkpt>
      <trkpt lat="45.98243" lon="6.70266">
        <ele>2242.4709472656</ele>
        <time>2017-04-29T08:47:45Z</time>
      </trkpt>
      <trkpt lat="45.98236" lon="6.70263">
        <ele>2244.4770507812</ele>
        <time>2017-04-29T08:47:58Z</time>
      </trkpt>
      <trkpt lat="45.98228" lon="6.70262">
        <ele>2246.4069824219</ele>
        <time>2017-04-29T08:48:07Z</time>
      </trkpt>
      <trkpt lat="45.98221" lon="6.70257">
        <ele>2247.4560546875</ele>
        <time>2017-04-29T08:49:36Z</time>
      </trkpt>
      <trkpt lat="45.98214" lon="6.70253">
        <ele>2247.1130371094</ele>
        <time>2017-04-29T08:49:43Z</time>
      </trkpt>
      <trkpt lat="45.98206" lon="6.70247">
        <ele>2247.041015625</ele>
        <time>2017-04-29T08:49:48Z</time>
      </trkpt>
      <trkpt lat="45.98192" lon="6.70241">
        <ele>2247.83203125</ele>
        <time>2017-04-29T08:50:00Z</time>
      </trkpt>
      <trkpt lat="45.98184" lon="6.70244">
        <ele>2248.8291015625</ele>
        <time>2017-04-29T08:50:09Z</time>
      </trkpt>
      <trkpt lat="45.98176" lon="6.70243">
        <ele>2249.3090820312</ele>
        <time>2017-04-29T08:50:17Z</time>
      </trkpt>
      <trkpt lat="45.98169" lon="6.70241">
        <ele>2249.873046875</ele>
        <time>2017-04-29T08:50:26Z</time>
      </trkpt>
      <trkpt lat="45.98162" lon="6.70233">
        <ele>2250.9331054688</ele>
        <time>2017-04-29T08:50:39Z</time>
      </trkpt>
      <trkpt lat="45.98156" lon="6.70228">
        <ele>2251.9460449219</ele>
        <time>2017-04-29T08:50:46Z</time>
      </trkpt>
      <trkpt lat="45.98149" lon="6.70225">
        <ele>2253.3620605469</ele>
        <time>2017-04-29T08:50:58Z</time>
      </trkpt>
      <trkpt lat="45.98142" lon="6.70222">
        <ele>2255.6201171875</ele>
        <time>2017-04-29T08:51:07Z</time>
      </trkpt>
      <trkpt lat="45.98134" lon="6.70216">
        <ele>2257.0710449219</ele>
        <time>2017-04-29T08:51:17Z</time>
      </trkpt>
      <trkpt lat="45.98127" lon="6.70212">
        <ele>2258.1499023438</ele>
        <time>2017-04-29T08:51:26Z</time>
      </trkpt>
      <trkpt lat="45.9812" lon="6.70208">
        <ele>2259.0681152344</ele>
        <time>2017-04-29T08:51:33Z</time>
      </trkpt>
      <trkpt lat="45.98118" lon="6.70198">
        <ele>2259.7719726562</ele>
        <time>2017-04-29T08:51:52Z</time>
      </trkpt>
      <trkpt lat="45.98111" lon="6.70194">
        <ele>2260.1430664062</ele>
        <time>2017-04-29T08:52:04Z</time>
      </trkpt>
      <trkpt lat="45.98104" lon="6.70189">
        <ele>2260.9909667969</ele>
        <time>2017-04-29T08:52:13Z</time>
      </trkpt>
      <trkpt lat="45.98098" lon="6.70183">
        <ele>2262.6188964844</ele>
        <time>2017-04-29T08:52:25Z</time>
      </trkpt>
      <trkpt lat="45.98091" lon="6.70178">
        <ele>2264.041015625</ele>
        <time>2017-04-29T08:52:44Z</time>
      </trkpt>
      <trkpt lat="45.98083" lon="6.70175">
        <ele>2264.2548828125</ele>
        <time>2017-04-29T08:52:50Z</time>
      </trkpt>
      <trkpt lat="45.98077" lon="6.70168">
        <ele>2265.3588867188</ele>
        <time>2017-04-29T08:53:02Z</time>
      </trkpt>
      <trkpt lat="45.98071" lon="6.70161">
        <ele>2267.2680664062</ele>
        <time>2017-04-29T08:53:16Z</time>
      </trkpt>
      <trkpt lat="45.98064" lon="6.70158">
        <ele>2268.9689941406</ele>
        <time>2017-04-29T08:53:39Z</time>
      </trkpt>
      <trkpt lat="45.98056" lon="6.70156">
        <ele>2269.8630371094</ele>
        <time>2017-04-29T08:53:50Z</time>
      </trkpt>
      <trkpt lat="45.98049" lon="6.70155">
        <ele>2273.1730957031</ele>
        <time>2017-04-29T08:54:21Z</time>
      </trkpt>
      <trkpt lat="45.98047" lon="6.70165">
        <ele>2275.7719726562</ele>
        <time>2017-04-29T08:54:41Z</time>
      </trkpt>
      <trkpt lat="45.98039" lon="6.70164">
        <ele>2277.4909667969</ele>
        <time>2017-04-29T08:55:07Z</time>
      </trkpt>
      <trkpt lat="45.98036" lon="6.70155">
        <ele>2278.7839355469</ele>
        <time>2017-04-29T08:55:23Z</time>
      </trkpt>
      <trkpt lat="45.98035" lon="6.70144">
        <ele>2280.62890625</ele>
        <time>2017-04-29T08:55:34Z</time>
      </trkpt>
      <trkpt lat="45.98034" lon="6.70134">
        <ele>2282.4099121094</ele>
        <time>2017-04-29T08:55:40Z</time>
      </trkpt>
      <trkpt lat="45.98031" lon="6.70124">
        <ele>2283.7548828125</ele>
        <time>2017-04-29T08:55:50Z</time>
      </trkpt>
      <trkpt lat="45.98026" lon="6.70115">
        <ele>2283.748046875</ele>
        <time>2017-04-29T08:55:57Z</time>
      </trkpt>
      <trkpt lat="45.9802" lon="6.70109">
        <ele>2283.2419433594</ele>
        <time>2017-04-29T08:56:06Z</time>
      </trkpt>
      <trkpt lat="45.98012" lon="6.70105">
        <ele>2284.4318847656</ele>
        <time>2017-04-29T08:56:14Z</time>
      </trkpt>
      <trkpt lat="45.98007" lon="6.70096">
        <ele>2286.6000976562</ele>
        <time>2017-04-29T08:56:40Z</time>
      </trkpt>
      <trkpt lat="45.98001" lon="6.70089">
        <ele>2286.7490234375</ele>
        <time>2017-04-29T08:56:59Z</time>
      </trkpt>
      <trkpt lat="45.97995" lon="6.70085">
        <ele>2287.166015625</ele>
        <time>2017-04-29T08:57:04Z</time>
      </trkpt>
      <trkpt lat="45.97988" lon="6.7008">
        <ele>2291.0229492188</ele>
        <time>2017-04-29T08:57:27Z</time>
      </trkpt>
      <trkpt lat="45.97982" lon="6.70074">
        <ele>2296.2749023438</ele>
        <time>2017-04-29T08:58:50Z</time>
      </trkpt>
      <trkpt lat="45.97979" lon="6.70065">
        <ele>2297.9851074219</ele>
        <time>2017-04-29T08:59:02Z</time>
      </trkpt>
      <trkpt lat="45.97973" lon="6.70058">
        <ele>2298.6350097656</ele>
        <time>2017-04-29T08:59:11Z</time>
      </trkpt>
      <trkpt lat="45.97967" lon="6.70051">
        <ele>2300.0900878906</ele>
        <time>2017-04-29T08:59:30Z</time>
      </trkpt>
      <trkpt lat="45.97962" lon="6.70044">
        <ele>2300.6508789062</ele>
        <time>2017-04-29T08:59:41Z</time>
      </trkpt>
      <trkpt lat="45.97957" lon="6.70035">
        <ele>2300.3249511719</ele>
        <time>2017-04-29T08:59:55Z</time>
      </trkpt>
      <trkpt lat="45.97952" lon="6.70027">
        <ele>2300.0249023438</ele>
        <time>2017-04-29T09:00:02Z</time>
      </trkpt>
      <trkpt lat="45.97947" lon="6.70019">
        <ele>2300.1950683594</ele>
        <time>2017-04-29T09:00:10Z</time>
      </trkpt>
      <trkpt lat="45.97942" lon="6.70009">
        <ele>2301.58203125</ele>
        <time>2017-04-29T09:00:20Z</time>
      </trkpt>
      <trkpt lat="45.9794" lon="6.69998">
        <ele>2302.6201171875</ele>
        <time>2017-04-29T09:00:34Z</time>
      </trkpt>
      <trkpt lat="45.97934" lon="6.6999">
        <ele>2302.7639160156</ele>
        <time>2017-04-29T09:00:41Z</time>
      </trkpt>
      <trkpt lat="45.97929" lon="6.69981">
        <ele>2302.4499511719</ele>
        <time>2017-04-29T09:00:48Z</time>
      </trkpt>
      <trkpt lat="45.97923" lon="6.69975">
        <ele>2302.4909667969</ele>
        <time>2017-04-29T09:00:58Z</time>
      </trkpt>
      <trkpt lat="45.97916" lon="6.6997">
        <ele>2302.5339355469</ele>
        <time>2017-04-29T09:01:08Z</time>
      </trkpt>
      <trkpt lat="45.97911" lon="6.6996">
        <ele>2303.6369628906</ele>
        <time>2017-04-29T09:01:17Z</time>
      </trkpt>
      <trkpt lat="45.9791" lon="6.6995">
        <ele>2304.5991210938</ele>
        <time>2017-04-29T09:01:29Z</time>
      </trkpt>
      <trkpt lat="45.97904" lon="6.69943">
        <ele>2305.1689453125</ele>
        <time>2017-04-29T09:01:45Z</time>
      </trkpt>
      <trkpt lat="45.97898" lon="6.69936">
        <ele>2305.1049804688</ele>
        <time>2017-04-29T09:01:52Z</time>
      </trkpt>
      <trkpt lat="45.97896" lon="6.69926">
        <ele>2307.1130371094</ele>
        <time>2017-04-29T09:02:10Z</time>
      </trkpt>
      <trkpt lat="45.97893" lon="6.69915">
        <ele>2309.1799316406</ele>
        <time>2017-04-29T09:03:23Z</time>
      </trkpt>
      <trkpt lat="45.97887" lon="6.69906">
        <ele>2309.2858886719</ele>
        <time>2017-04-29T09:03:37Z</time>
      </trkpt>
      <trkpt lat="45.97886" lon="6.69896">
        <ele>2311.1721191406</ele>
        <time>2017-04-29T09:03:52Z</time>
      </trkpt>
      <trkpt lat="45.97881" lon="6.69887">
        <ele>2311.87890625</ele>
        <time>2017-04-29T09:04:03Z</time>
      </trkpt>
      <trkpt lat="45.97877" lon="6.69879">
        <ele>2312.50390625</ele>
        <time>2017-04-29T09:04:15Z</time>
      </trkpt>
      <trkpt lat="45.97872" lon="6.69871">
        <ele>2313.4299316406</ele>
        <time>2017-04-29T09:04:27Z</time>
      </trkpt>
      <trkpt lat="45.97868" lon="6.69862">
        <ele>2313.3898925781</ele>
        <time>2017-04-29T09:04:34Z</time>
      </trkpt>
      <trkpt lat="45.97864" lon="6.69853">
        <ele>2313.6369628906</ele>
        <time>2017-04-29T09:04:41Z</time>
      </trkpt>
      <trkpt lat="45.9786" lon="6.69843">
        <ele>2315.3500976562</ele>
        <time>2017-04-29T09:04:56Z</time>
      </trkpt>
      <trkpt lat="45.97855" lon="6.69834">
        <ele>2316.1889648438</ele>
        <time>2017-04-29T09:05:07Z</time>
      </trkpt>
      <trkpt lat="45.9785" lon="6.69826">
        <ele>2316.3669433594</ele>
        <time>2017-04-29T09:05:17Z</time>
      </trkpt>
      <trkpt lat="45.97845" lon="6.69817">
        <ele>2316.3798828125</ele>
        <time>2017-04-29T09:05:27Z</time>
      </trkpt>
      <trkpt lat="45.97841" lon="6.69808">
        <ele>2317.0119628906</ele>
        <time>2017-04-29T09:05:38Z</time>
      </trkpt>
      <trkpt lat="45.97836" lon="6.69799">
        <ele>2317.3149414062</ele>
        <time>2017-04-29T09:05:46Z</time>
      </trkpt>
      <trkpt lat="45.97833" lon="6.69789">
        <ele>2317.3649902344</ele>
        <time>2017-04-29T09:05:53Z</time>
      </trkpt>
      <trkpt lat="45.97828" lon="6.6978">
        <ele>2318.7150878906</ele>
        <time>2017-04-29T09:06:05Z</time>
      </trkpt>
      <trkpt lat="45.97827" lon="6.6977">
        <ele>2318.9660644531</ele>
        <time>2017-04-29T09:06:13Z</time>
      </trkpt>
      <trkpt lat="45.97821" lon="6.69762">
        <ele>2319.2270507812</ele>
        <time>2017-04-29T09:06:23Z</time>
      </trkpt>
      <trkpt lat="45.97816" lon="6.69753">
        <ele>2319.333984375</ele>
        <time>2017-04-29T09:06:33Z</time>
      </trkpt>
      <trkpt lat="45.9781" lon="6.69746">
        <ele>2319.4641113281</ele>
        <time>2017-04-29T09:06:45Z</time>
      </trkpt>
      <trkpt lat="45.97806" lon="6.69737">
        <ele>2321.9838867188</ele>
        <time>2017-04-29T09:06:59Z</time>
      </trkpt>
      <trkpt lat="45.97801" lon="6.69729">
        <ele>2321.9809570312</ele>
        <time>2017-04-29T09:07:12Z</time>
      </trkpt>
      <trkpt lat="45.97795" lon="6.69723">
        <ele>2322.2009277344</ele>
        <time>2017-04-29T09:07:19Z</time>
      </trkpt>
      <trkpt lat="45.97802" lon="6.6972">
        <ele>2322.4990234375</ele>
        <time>2017-04-29T09:07:35Z</time>
      </trkpt>
      <trkpt lat="45.97795" lon="6.6972">
        <ele>2321.7360839844</ele>
        <time>2017-04-29T09:07:57Z</time>
      </trkpt>
      <trkpt lat="45.97789" lon="6.69713">
        <ele>2322.5681152344</ele>
        <time>2017-04-29T09:08:23Z</time>
      </trkpt>
      <trkpt lat="45.97782" lon="6.69708">
        <ele>2323.5249023438</ele>
        <time>2017-04-29T09:08:30Z</time>
      </trkpt>
      <trkpt lat="45.97776" lon="6.69701">
        <ele>2324.9489746094</ele>
        <time>2017-04-29T09:08:43Z</time>
      </trkpt>
      <trkpt lat="45.97771" lon="6.69694">
        <ele>2325.9089355469</ele>
        <time>2017-04-29T09:08:54Z</time>
      </trkpt>
      <trkpt lat="45.97764" lon="6.6969">
        <ele>2326.1279296875</ele>
        <time>2017-04-29T09:09:06Z</time>
      </trkpt>
      <trkpt lat="45.97757" lon="6.69685">
        <ele>2326.7561035156</ele>
        <time>2017-04-29T09:09:14Z</time>
      </trkpt>
      <trkpt lat="45.97749" lon="6.69683">
        <ele>2329.7099609375</ele>
        <time>2017-04-29T09:09:33Z</time>
      </trkpt>
      <trkpt lat="45.97741" lon="6.6968">
        <ele>2334.25</ele>
        <time>2017-04-29T09:09:58Z</time>
      </trkpt>
      <trkpt lat="45.97735" lon="6.69675">
        <ele>2336.5791015625</ele>
        <time>2017-04-29T09:10:13Z</time>
      </trkpt>
      <trkpt lat="45.97728" lon="6.6967">
        <ele>2338.6950683594</ele>
        <time>2017-04-29T09:10:27Z</time>
      </trkpt>
      <trkpt lat="45.97726" lon="6.6966">
        <ele>2341.0720214844</ele>
        <time>2017-04-29T09:10:47Z</time>
      </trkpt>
      <trkpt lat="45.9772" lon="6.69654">
        <ele>2341.9519042969</ele>
        <time>2017-04-29T09:10:59Z</time>
      </trkpt>
      <trkpt lat="45.97715" lon="6.69646">
        <ele>2345.4221191406</ele>
        <time>2017-04-29T09:11:24Z</time>
      </trkpt>
      <trkpt lat="45.97709" lon="6.69639">
        <ele>2346.4680175781</ele>
        <time>2017-04-29T09:11:45Z</time>
      </trkpt>
      <trkpt lat="45.97703" lon="6.69633">
        <ele>2347.7980957031</ele>
        <time>2017-04-29T09:11:56Z</time>
      </trkpt>
      <trkpt lat="45.977" lon="6.69624">
        <ele>2351.2060546875</ele>
        <time>2017-04-29T09:12:10Z</time>
      </trkpt>
      <trkpt lat="45.97694" lon="6.69618">
        <ele>2352.4450683594</ele>
        <time>2017-04-29T09:12:24Z</time>
      </trkpt>
      <trkpt lat="45.97689" lon="6.69609">
        <ele>2354.2490234375</ele>
        <time>2017-04-29T09:12:43Z</time>
      </trkpt>
      <trkpt lat="45.97683" lon="6.69604">
        <ele>2356.9150390625</ele>
        <time>2017-04-29T09:13:01Z</time>
      </trkpt>
      <trkpt lat="45.97676" lon="6.696">
        <ele>2359.1650390625</ele>
        <time>2017-04-29T09:13:17Z</time>
      </trkpt>
      <trkpt lat="45.97669" lon="6.69603">
        <ele>2360.0319824219</ele>
        <time>2017-04-29T09:13:27Z</time>
      </trkpt>
      <trkpt lat="45.97664" lon="6.6961">
        <ele>2360.1440429688</ele>
        <time>2017-04-29T09:13:37Z</time>
      </trkpt>
      <trkpt lat="45.97659" lon="6.69618">
        <ele>2361.5600585938</ele>
        <time>2017-04-29T09:13:54Z</time>
      </trkpt>
      <trkpt lat="45.97652" lon="6.6962">
        <ele>2364.7810058594</ele>
        <time>2017-04-29T09:14:19Z</time>
      </trkpt>
      <trkpt lat="45.97648" lon="6.6961">
        <ele>2365.6779785156</ele>
        <time>2017-04-29T09:14:34Z</time>
      </trkpt>
      <trkpt lat="45.97643" lon="6.69603">
        <ele>2368.5900878906</ele>
        <time>2017-04-29T09:14:48Z</time>
      </trkpt>
      <trkpt lat="45.97636" lon="6.69604">
        <ele>2370.50390625</ele>
        <time>2017-04-29T09:15:24Z</time>
      </trkpt>
      <trkpt lat="45.97633" lon="6.69615">
        <ele>2368.4699707031</ele>
        <time>2017-04-29T09:15:31Z</time>
      </trkpt>
      <trkpt lat="45.97629" lon="6.69624">
        <ele>2370.5471191406</ele>
        <time>2017-04-29T09:15:52Z</time>
      </trkpt>
      <trkpt lat="45.97622" lon="6.69627">
        <ele>2374.62109375</ele>
        <time>2017-04-29T09:16:08Z</time>
      </trkpt>
      <trkpt lat="45.97613" lon="6.69627">
        <ele>2381.0700683594</ele>
        <time>2017-04-29T09:16:27Z</time>
      </trkpt>
      <trkpt lat="45.97609" lon="6.69618">
        <ele>2384.7758789062</ele>
        <time>2017-04-29T09:16:39Z</time>
      </trkpt>
      <trkpt lat="45.97601" lon="6.69618">
        <ele>2394.0358886719</ele>
        <time>2017-04-29T09:26:12Z</time>
      </trkpt>
      <trkpt lat="45.97594" lon="6.69614">
        <ele>2394.0270996094</ele>
        <time>2017-04-29T09:26:22Z</time>
      </trkpt>
      <trkpt lat="45.97588" lon="6.69606">
        <ele>2395.5490722656</ele>
        <time>2017-04-29T09:26:33Z</time>
      </trkpt>
      <trkpt lat="45.97581" lon="6.69601">
        <ele>2397.2700195312</ele>
        <time>2017-04-29T09:26:43Z</time>
      </trkpt>
      <trkpt lat="45.97573" lon="6.69599">
        <ele>2399.6330566406</ele>
        <time>2017-04-29T09:27:01Z</time>
      </trkpt>
      <trkpt lat="45.97567" lon="6.69593">
        <ele>2401.3688964844</ele>
        <time>2017-04-29T09:27:15Z</time>
      </trkpt>
      <trkpt lat="45.97562" lon="6.69587">
        <ele>2403.1640625</ele>
        <time>2017-04-29T09:27:33Z</time>
      </trkpt>
      <trkpt lat="45.97557" lon="6.69578">
        <ele>2405.1560058594</ele>
        <time>2017-04-29T09:27:51Z</time>
      </trkpt>
      <trkpt lat="45.97552" lon="6.69569">
        <ele>2406.6240234375</ele>
        <time>2017-04-29T09:28:05Z</time>
      </trkpt>
      <trkpt lat="45.97549" lon="6.6956">
        <ele>2408.4709472656</ele>
        <time>2017-04-29T09:28:23Z</time>
      </trkpt>
      <trkpt lat="45.97547" lon="6.69549">
        <ele>2410.4221191406</ele>
        <time>2017-04-29T09:28:39Z</time>
      </trkpt>
      <trkpt lat="45.97546" lon="6.69538">
        <ele>2412.33203125</ele>
        <time>2017-04-29T09:28:54Z</time>
      </trkpt>
      <trkpt lat="45.97542" lon="6.6953">
        <ele>2413.4780273438</ele>
        <time>2017-04-29T09:29:11Z</time>
      </trkpt>
      <trkpt lat="45.97537" lon="6.69522">
        <ele>2415.9580078125</ele>
        <time>2017-04-29T09:29:55Z</time>
      </trkpt>
      <trkpt lat="45.97536" lon="6.69532">
        <ele>2421.0170898438</ele>
        <time>2017-04-29T09:31:36Z</time>
      </trkpt>
      <trkpt lat="45.9753" lon="6.69539">
        <ele>2421.1101074219</ele>
        <time>2017-04-29T09:31:50Z</time>
      </trkpt>
      <trkpt lat="45.97529" lon="6.69549">
        <ele>2425.373046875</ele>
        <time>2017-04-29T09:32:16Z</time>
      </trkpt>
      <trkpt lat="45.97523" lon="6.69541">
        <ele>2434.5070800781</ele>
        <time>2017-04-29T09:33:20Z</time>
      </trkpt>
      <trkpt lat="45.97519" lon="6.69532">
        <ele>2436.1840820312</ele>
        <time>2017-04-29T09:33:41Z</time>
      </trkpt>
      <trkpt lat="45.97516" lon="6.69521">
        <ele>2439.1560058594</ele>
        <time>2017-04-29T09:34:10Z</time>
      </trkpt>
      <trkpt lat="45.97516" lon="6.6951">
        <ele>2442.1311035156</ele>
        <time>2017-04-29T09:34:28Z</time>
      </trkpt>
      <trkpt lat="45.97509" lon="6.69515">
        <ele>2447.2739257812</ele>
        <time>2017-04-29T09:35:01Z</time>
      </trkpt>
      <trkpt lat="45.9751" lon="6.69504">
        <ele>2453.998046875</ele>
        <time>2017-04-29T09:35:49Z</time>
      </trkpt>
      <trkpt lat="45.97503" lon="6.69508">
        <ele>2458.2900390625</ele>
        <time>2017-04-29T09:36:15Z</time>
      </trkpt>
      <trkpt lat="45.975" lon="6.69497">
        <ele>2464.4528808594</ele>
        <time>2017-04-29T09:36:59Z</time>
      </trkpt>
      <trkpt lat="45.97502" lon="6.69487">
        <ele>2467.3701171875</ele>
        <time>2017-04-29T09:37:20Z</time>
      </trkpt>
      <trkpt lat="45.975" lon="6.69477">
        <ele>2469.3049316406</ele>
        <time>2017-04-29T09:37:37Z</time>
      </trkpt>
      <trkpt lat="45.97493" lon="6.69481">
        <ele>2472.1049804688</ele>
        <time>2017-04-29T09:37:59Z</time>
      </trkpt>
      <trkpt lat="45.97488" lon="6.69488">
        <ele>2474.126953125</ele>
        <time>2017-04-29T09:38:12Z</time>
      </trkpt>
      <trkpt lat="45.97481" lon="6.69493">
        <ele>2476.4069824219</ele>
        <time>2017-04-29T09:38:29Z</time>
      </trkpt>
      <trkpt lat="45.97475" lon="6.69499">
        <ele>2479.0100097656</ele>
        <time>2017-04-29T09:38:46Z</time>
      </trkpt>
      <trkpt lat="45.97468" lon="6.69503">
        <ele>2481.5390625</ele>
        <time>2017-04-29T09:39:04Z</time>
      </trkpt>
      <trkpt lat="45.97461" lon="6.69508">
        <ele>2485.419921875</ele>
        <time>2017-04-29T09:39:26Z</time>
      </trkpt>
      <trkpt lat="45.97461" lon="6.69497">
        <ele>2490.375</ele>
        <time>2017-04-29T09:40:10Z</time>
      </trkpt>
      <trkpt lat="45.97458" lon="6.69488">
        <ele>2491.4030761719</ele>
        <time>2017-04-29T09:40:27Z</time>
      </trkpt>
      <trkpt lat="45.97453" lon="6.6948">
        <ele>2492.9030761719</ele>
        <time>2017-04-29T09:40:41Z</time>
      </trkpt>
      <trkpt lat="45.97451" lon="6.69469">
        <ele>2494.5690917969</ele>
        <time>2017-04-29T09:40:58Z</time>
      </trkpt>
      <trkpt lat="45.97446" lon="6.69462">
        <ele>2495.8500976562</ele>
        <time>2017-04-29T09:41:08Z</time>
      </trkpt>
      <trkpt lat="45.9744" lon="6.69455">
        <ele>2498.5400390625</ele>
        <time>2017-04-29T09:41:28Z</time>
      </trkpt>
      <trkpt lat="45.97434" lon="6.69449">
        <ele>2501.3840332031</ele>
        <time>2017-04-29T09:41:47Z</time>
      </trkpt>
      <trkpt lat="45.97428" lon="6.69443">
        <ele>2502.7758789062</ele>
        <time>2017-04-29T09:42:01Z</time>
      </trkpt>
      <trkpt lat="45.97421" lon="6.69448">
        <ele>2510.8391113281</ele>
        <time>2017-04-29T09:42:27Z</time>
      </trkpt>
      <trkpt lat="45.97415" lon="6.69452">
        <ele>2515.0280761719</ele>
        <time>2017-04-29T09:43:36Z</time>
      </trkpt>
      <trkpt lat="45.97408" lon="6.69447">
        <ele>2514.2229003906</ele>
        <time>2017-04-29T09:44:03Z</time>
      </trkpt>
      <trkpt lat="45.97416" lon="6.69446">
        <ele>2513.876953125</ele>
        <time>2017-04-29T09:44:24Z</time>
      </trkpt>
      <trkpt lat="45.97417" lon="6.69435">
        <ele>2516.9340820312</ele>
        <time>2017-04-29T09:44:55Z</time>
      </trkpt>
      <trkpt lat="45.97416" lon="6.69424">
        <ele>2520.3181152344</ele>
        <time>2017-04-29T09:45:12Z</time>
      </trkpt>
      <trkpt lat="45.97417" lon="6.69413">
        <ele>2524.2839355469</ele>
        <time>2017-04-29T09:45:31Z</time>
      </trkpt>
      <trkpt lat="45.97411" lon="6.69408">
        <ele>2528.2209472656</ele>
        <time>2017-04-29T09:45:56Z</time>
      </trkpt>
      <trkpt lat="45.97403" lon="6.69404">
        <ele>2529.9418945312</ele>
        <time>2017-04-29T09:46:06Z</time>
      </trkpt>
      <trkpt lat="45.97396" lon="6.69404">
        <ele>2531.4990234375</ele>
        <time>2017-04-29T09:46:16Z</time>
      </trkpt>
      <trkpt lat="45.97398" lon="6.69393">
        <ele>2532.8950195312</ele>
        <time>2017-04-29T09:46:38Z</time>
      </trkpt>
      <trkpt lat="45.974" lon="6.69383">
        <ele>2536.5549316406</ele>
        <time>2017-04-29T09:46:57Z</time>
      </trkpt>
      <trkpt lat="45.974" lon="6.69372">
        <ele>2539.0759277344</ele>
        <time>2017-04-29T09:47:15Z</time>
      </trkpt>
      <trkpt lat="45.97397" lon="6.69362">
        <ele>2540.79296875</ele>
        <time>2017-04-29T09:47:31Z</time>
      </trkpt>
      <trkpt lat="45.9739" lon="6.69359">
        <ele>2541.5668945312</ele>
        <time>2017-04-29T09:47:48Z</time>
      </trkpt>
      <trkpt lat="45.97385" lon="6.69352">
        <ele>2543.5270996094</ele>
        <time>2017-04-29T09:48:06Z</time>
      </trkpt>
      <trkpt lat="45.97389" lon="6.69343">
        <ele>2547.2150878906</ele>
        <time>2017-04-29T09:48:51Z</time>
      </trkpt>
      <trkpt lat="45.97384" lon="6.69335">
        <ele>2549.4719238281</ele>
        <time>2017-04-29T09:49:18Z</time>
      </trkpt>
      <trkpt lat="45.97379" lon="6.69327">
        <ele>2550.9030761719</ele>
        <time>2017-04-29T09:49:34Z</time>
      </trkpt>
      <trkpt lat="45.97376" lon="6.69317">
        <ele>2553.0830078125</ele>
        <time>2017-04-29T09:49:50Z</time>
      </trkpt>
      <trkpt lat="45.97371" lon="6.6931">
        <ele>2557.1770019531</ele>
        <time>2017-04-29T09:50:13Z</time>
      </trkpt>
      <trkpt lat="45.97367" lon="6.69318">
        <ele>2564.0849609375</ele>
        <time>2017-04-29T09:50:45Z</time>
      </trkpt>
      <trkpt lat="45.97362" lon="6.69325">
        <ele>2568.4838867188</ele>
        <time>2017-04-29T09:51:04Z</time>
      </trkpt>
      <trkpt lat="45.97356" lon="6.69332">
        <ele>2572.0480957031</ele>
        <time>2017-04-29T09:51:23Z</time>
      </trkpt>
      <trkpt lat="45.97349" lon="6.69336">
        <ele>2576.3000488281</ele>
        <time>2017-04-29T09:51:47Z</time>
      </trkpt>
      <trkpt lat="45.97343" lon="6.69342">
        <ele>2578.2709960938</ele>
        <time>2017-04-29T09:52:02Z</time>
      </trkpt>
      <trkpt lat="45.97336" lon="6.69345">
        <ele>2580.1040039062</ele>
        <time>2017-04-29T09:52:18Z</time>
      </trkpt>
      <trkpt lat="45.97335" lon="6.69334">
        <ele>2582.5891113281</ele>
        <time>2017-04-29T09:52:54Z</time>
      </trkpt>
      <trkpt lat="45.97337" lon="6.69324">
        <ele>2585.8059082031</ele>
        <time>2017-04-29T09:53:17Z</time>
      </trkpt>
      <trkpt lat="45.9733" lon="6.69321">
        <ele>2591.2619628906</ele>
        <time>2017-04-29T09:53:48Z</time>
      </trkpt>
      <trkpt lat="45.97322" lon="6.69323">
        <ele>2593.8210449219</ele>
        <time>2017-04-29T09:54:03Z</time>
      </trkpt>
      <trkpt lat="45.97315" lon="6.69324">
        <ele>2595.3620605469</ele>
        <time>2017-04-29T09:54:18Z</time>
      </trkpt>
      <trkpt lat="45.97308" lon="6.69325">
        <ele>2597.7041015625</ele>
        <time>2017-04-29T09:54:36Z</time>
      </trkpt>
      <trkpt lat="45.97301" lon="6.69323">
        <ele>2607.1369628906</ele>
        <time>2017-04-29T09:55:55Z</time>
      </trkpt>
      <trkpt lat="45.97301" lon="6.69312">
        <ele>2610.9399414062</ele>
        <time>2017-04-29T09:57:24Z</time>
      </trkpt>
      <trkpt lat="45.97297" lon="6.69303">
        <ele>2612.6369628906</ele>
        <time>2017-04-29T09:57:43Z</time>
      </trkpt>
      <trkpt lat="45.9729" lon="6.693">
        <ele>2613.8969726562</ele>
        <time>2017-04-29T09:58:25Z</time>
      </trkpt>
      <trkpt lat="45.97282" lon="6.693">
        <ele>2616.373046875</ele>
        <time>2017-04-29T09:58:41Z</time>
      </trkpt>
      <trkpt lat="45.97277" lon="6.69307">
        <ele>2622.3659667969</ele>
        <time>2017-04-29T09:59:12Z</time>
      </trkpt>
      <trkpt lat="45.97271" lon="6.69313">
        <ele>2636.5700683594</ele>
        <time>2017-04-29T10:00:41Z</time>
      </trkpt>
      <trkpt lat="45.9727" lon="6.69324">
        <ele>2640.8010253906</ele>
        <time>2017-04-29T10:01:02Z</time>
      </trkpt>
      <trkpt lat="45.97264" lon="6.69331">
        <ele>2642.7329101562</ele>
        <time>2017-04-29T10:01:16Z</time>
      </trkpt>
      <trkpt lat="45.97258" lon="6.69336">
        <ele>2642.7680664062</ele>
        <time>2017-04-29T10:01:28Z</time>
      </trkpt>
      <trkpt lat="45.9725" lon="6.69337">
        <ele>2643.794921875</ele>
        <time>2017-04-29T10:01:47Z</time>
      </trkpt>
      <trkpt lat="45.97243" lon="6.69334">
        <ele>2645.5209960938</ele>
        <time>2017-04-29T10:02:05Z</time>
      </trkpt>
      <trkpt lat="45.97237" lon="6.69328">
        <ele>2650.9399414062</ele>
        <time>2017-04-29T10:04:11Z</time>
      </trkpt>
      <trkpt lat="45.97232" lon="6.6932">
        <ele>2652.2290039062</ele>
        <time>2017-04-29T10:04:27Z</time>
      </trkpt>
      <trkpt lat="45.97226" lon="6.69313">
        <ele>2653.24609375</ele>
        <time>2017-04-29T10:04:41Z</time>
      </trkpt>
      <trkpt lat="45.97221" lon="6.69306">
        <ele>2655.6931152344</ele>
        <time>2017-04-29T10:05:14Z</time>
      </trkpt>
      <trkpt lat="45.97215" lon="6.69299">
        <ele>2657.2800292969</ele>
        <time>2017-04-29T10:05:27Z</time>
      </trkpt>
      <trkpt lat="45.97208" lon="6.69295">
        <ele>2658.6579589844</ele>
        <time>2017-04-29T10:05:40Z</time>
      </trkpt>
      <trkpt lat="45.97201" lon="6.69291">
        <ele>2660.4340820312</ele>
        <time>2017-04-29T10:05:55Z</time>
      </trkpt>
      <trkpt lat="45.97205" lon="6.69281">
        <ele>2662.4318847656</ele>
        <time>2017-04-29T10:06:11Z</time>
      </trkpt>
      <trkpt lat="45.97206" lon="6.69271">
        <ele>2664.9299316406</ele>
        <time>2017-04-29T10:06:27Z</time>
      </trkpt>
      <trkpt lat="45.972" lon="6.69267">
        <ele>2667.58203125</ele>
        <time>2017-04-29T10:06:49Z</time>
      </trkpt>
      <trkpt lat="45.97193" lon="6.69264">
        <ele>2669.45703125</ele>
        <time>2017-04-29T10:07:08Z</time>
      </trkpt>
      <trkpt lat="45.9719" lon="6.69253">
        <ele>2670.7700195312</ele>
        <time>2017-04-29T10:07:22Z</time>
      </trkpt>
      <trkpt lat="45.97186" lon="6.69245">
        <ele>2672.9890136719</ele>
        <time>2017-04-29T10:07:37Z</time>
      </trkpt>
      <trkpt lat="45.97183" lon="6.69235">
        <ele>2675.7429199219</ele>
        <time>2017-04-29T10:07:57Z</time>
      </trkpt>
      <trkpt lat="45.97179" lon="6.69226">
        <ele>2678.125</ele>
        <time>2017-04-29T10:08:13Z</time>
      </trkpt>
      <trkpt lat="45.97174" lon="6.69216">
        <ele>2684.9750976562</ele>
        <time>2017-04-29T10:16:24Z</time>
      </trkpt>
      <trkpt lat="45.97171" lon="6.69207">
        <ele>2685.1489257812</ele>
        <time>2017-04-29T10:16:44Z</time>
      </trkpt>
      <trkpt lat="45.97166" lon="6.69199">
        <ele>2686.1459960938</ele>
        <time>2017-04-29T10:17:11Z</time>
      </trkpt>
      <trkpt lat="45.97162" lon="6.69189">
        <ele>2685.6469726562</ele>
        <time>2017-04-29T10:17:45Z</time>
      </trkpt>
      <trkpt lat="45.97158" lon="6.6918">
        <ele>2685.4260253906</ele>
        <time>2017-04-29T10:18:07Z</time>
      </trkpt>
      <trkpt lat="45.97154" lon="6.69171">
        <ele>2685.4279785156</ele>
        <time>2017-04-29T10:18:30Z</time>
      </trkpt>
      <trkpt lat="45.97152" lon="6.69161">
        <ele>2685.7080078125</ele>
        <time>2017-04-29T10:18:44Z</time>
      </trkpt>
      <trkpt lat="45.9715" lon="6.69151">
        <ele>2685.7438964844</ele>
        <time>2017-04-29T10:19:01Z</time>
      </trkpt>
      <trkpt lat="45.97149" lon="6.6914">
        <ele>2687.3159179688</ele>
        <time>2017-04-29T10:19:26Z</time>
      </trkpt>
      <trkpt lat="45.97148" lon="6.69129">
        <ele>2689.3540039062</ele>
        <time>2017-04-29T10:19:51Z</time>
      </trkpt>
      <trkpt lat="45.97146" lon="6.69119">
        <ele>2690.8081054688</ele>
        <time>2017-04-29T10:20:12Z</time>
      </trkpt>
      <trkpt lat="45.97145" lon="6.69109">
        <ele>2692.1989746094</ele>
        <time>2017-04-29T10:20:27Z</time>
      </trkpt>
      <trkpt lat="45.97143" lon="6.69099">
        <ele>2693.5600585938</ele>
        <time>2017-04-29T10:20:40Z</time>
      </trkpt>
      <trkpt lat="45.9714" lon="6.69089">
        <ele>2695.0439453125</ele>
        <time>2017-04-29T10:20:55Z</time>
      </trkpt>
      <trkpt lat="45.97137" lon="6.6908">
        <ele>2696.2160644531</ele>
        <time>2017-04-29T10:21:14Z</time>
      </trkpt>
      <trkpt lat="45.97135" lon="6.6907">
        <ele>2694.7338867188</ele>
        <time>2017-04-29T10:31:54Z</time>
      </trkpt>
      <trkpt lat="45.97131" lon="6.69079">
        <ele>2691.623046875</ele>
        <time>2017-04-29T10:33:18Z</time>
      </trkpt>
      <trkpt lat="45.97134" lon="6.69089">
        <ele>2694.3898925781</ele>
        <time>2017-04-29T10:39:24Z</time>
      </trkpt>
      <trkpt lat="45.97135" lon="6.69099">
        <ele>2694.0830078125</ele>
        <time>2017-04-29T10:39:35Z</time>
      </trkpt>
      <trkpt lat="45.97139" lon="6.69109">
        <ele>2693.6779785156</ele>
        <time>2017-04-29T10:39:48Z</time>
      </trkpt>
      <trkpt lat="45.97141" lon="6.69119">
        <ele>2692.8391113281</ele>
        <time>2017-04-29T10:40:00Z</time>
      </trkpt>
      <trkpt lat="45.97139" lon="6.6913">
        <ele>2692.2438964844</ele>
        <time>2017-04-29T10:40:15Z</time>
      </trkpt>
      <trkpt lat="45.97143" lon="6.69139">
        <ele>2689.419921875</ele>
        <time>2017-04-29T10:40:53Z</time>
      </trkpt>
      <trkpt lat="45.97144" lon="6.6915">
        <ele>2689.2561035156</ele>
        <time>2017-04-29T10:41:13Z</time>
      </trkpt>
      <trkpt lat="45.97144" lon="6.6916">
        <ele>2687.2009277344</ele>
        <time>2017-04-29T10:41:37Z</time>
      </trkpt>
      <trkpt lat="45.97148" lon="6.69169">
        <ele>2685.4299316406</ele>
        <time>2017-04-29T10:41:55Z</time>
      </trkpt>
      <trkpt lat="45.97152" lon="6.69179">
        <ele>2682.1809082031</ele>
        <time>2017-04-29T10:42:15Z</time>
      </trkpt>
      <trkpt lat="45.97157" lon="6.69187">
        <ele>2680.4509277344</ele>
        <time>2017-04-29T10:42:31Z</time>
      </trkpt>
      <trkpt lat="45.9716" lon="6.69196">
        <ele>2680.2580566406</ele>
        <time>2017-04-29T10:42:47Z</time>
      </trkpt>
      <trkpt lat="45.97165" lon="6.69205">
        <ele>2679.8601074219</ele>
        <time>2017-04-29T10:42:59Z</time>
      </trkpt>
      <trkpt lat="45.97168" lon="6.69215">
        <ele>2679.3068847656</ele>
        <time>2017-04-29T10:43:12Z</time>
      </trkpt>
      <trkpt lat="45.97173" lon="6.69221">
        <ele>2678.544921875</ele>
        <time>2017-04-29T10:43:33Z</time>
      </trkpt>
      <trkpt lat="45.97178" lon="6.69212">
        <ele>2677.8068847656</ele>
        <time>2017-04-29T10:44:44Z</time>
      </trkpt>
      <trkpt lat="45.97183" lon="6.69224">
        <ele>2680.4360351562</ele>
        <time>2017-04-29T10:50:35Z</time>
      </trkpt>
      <trkpt lat="45.97187" lon="6.69249">
        <ele>2678.4230957031</ele>
        <time>2017-04-29T10:50:40Z</time>
      </trkpt>
      <trkpt lat="45.97197" lon="6.69273">
        <ele>2676.4880371094</ele>
        <time>2017-04-29T10:50:45Z</time>
      </trkpt>
      <trkpt lat="45.97201" lon="6.69285">
        <ele>2672.9719238281</ele>
        <time>2017-04-29T10:50:48Z</time>
      </trkpt>
      <trkpt lat="45.97211" lon="6.69306">
        <ele>2664.7561035156</ele>
        <time>2017-04-29T10:50:53Z</time>
      </trkpt>
      <trkpt lat="45.97224" lon="6.6932">
        <ele>2662.1970214844</ele>
        <time>2017-04-29T10:51:06Z</time>
      </trkpt>
      <trkpt lat="45.97231" lon="6.69325">
        <ele>2660.7060546875</ele>
        <time>2017-04-29T10:51:17Z</time>
      </trkpt>
      <trkpt lat="45.9725" lon="6.69318">
        <ele>2659.2309570312</ele>
        <time>2017-04-29T10:51:23Z</time>
      </trkpt>
      <trkpt lat="45.9726" lon="6.69327">
        <ele>2654.0310058594</ele>
        <time>2017-04-29T10:51:32Z</time>
      </trkpt>
      <trkpt lat="45.97264" lon="6.69316">
        <ele>2650.2880859375</ele>
        <time>2017-04-29T10:52:01Z</time>
      </trkpt>
      <trkpt lat="45.97276" lon="6.69304">
        <ele>2647.4609375</ele>
        <time>2017-04-29T10:52:10Z</time>
      </trkpt>
      <trkpt lat="45.97294" lon="6.69309">
        <ele>2636.5991210938</ele>
        <time>2017-04-29T10:52:18Z</time>
      </trkpt>
      <trkpt lat="45.97301" lon="6.69308">
        <ele>2633.5849609375</ele>
        <time>2017-04-29T10:52:32Z</time>
      </trkpt>
      <trkpt lat="45.97296" lon="6.69318">
        <ele>2623.8979492188</ele>
        <time>2017-04-29T10:53:58Z</time>
      </trkpt>
      <trkpt lat="45.97296" lon="6.69328">
        <ele>2621.8100585938</ele>
        <time>2017-04-29T10:54:05Z</time>
      </trkpt>
      <trkpt lat="45.973" lon="6.69351">
        <ele>2620.0219726562</ele>
        <time>2017-04-29T10:54:12Z</time>
      </trkpt>
      <trkpt lat="45.97307" lon="6.69344">
        <ele>2618.2990722656</ele>
        <time>2017-04-29T10:54:17Z</time>
      </trkpt>
      <trkpt lat="45.97321" lon="6.6933">
        <ele>2606.6149902344</ele>
        <time>2017-04-29T10:54:22Z</time>
      </trkpt>
      <trkpt lat="45.97334" lon="6.69319">
        <ele>2604.9699707031</ele>
        <time>2017-04-29T10:54:36Z</time>
      </trkpt>
      <trkpt lat="45.97335" lon="6.6933">
        <ele>2602.6840820312</ele>
        <time>2017-04-29T10:54:46Z</time>
      </trkpt>
      <trkpt lat="45.97348" lon="6.69342">
        <ele>2595.7580566406</ele>
        <time>2017-04-29T10:54:52Z</time>
      </trkpt>
      <trkpt lat="45.97365" lon="6.69342">
        <ele>2583.5849609375</ele>
        <time>2017-04-29T10:54:58Z</time>
      </trkpt>
      <trkpt lat="45.97385" lon="6.69343">
        <ele>2569.6240234375</ele>
        <time>2017-04-29T10:55:03Z</time>
      </trkpt>
      <trkpt lat="45.9741" lon="6.69329">
        <ele>2556.1840820312</ele>
        <time>2017-04-29T10:55:09Z</time>
      </trkpt>
      <trkpt lat="45.97422" lon="6.69315">
        <ele>2547.62890625</ele>
        <time>2017-04-29T10:57:27Z</time>
      </trkpt>
      <trkpt lat="45.97439" lon="6.69328">
        <ele>2539.4309082031</ele>
        <time>2017-04-29T10:57:34Z</time>
      </trkpt>
      <trkpt lat="45.97463" lon="6.69349">
        <ele>2525.2009277344</ele>
        <time>2017-04-29T10:57:40Z</time>
      </trkpt>
      <trkpt lat="45.97478" lon="6.69361">
        <ele>2521.916015625</ele>
        <time>2017-04-29T10:57:45Z</time>
      </trkpt>
      <trkpt lat="45.97491" lon="6.6938">
        <ele>2510.2790527344</ele>
        <time>2017-04-29T10:57:55Z</time>
      </trkpt>
      <trkpt lat="45.9749" lon="6.69391">
        <ele>2505.748046875</ele>
        <time>2017-04-29T10:58:09Z</time>
      </trkpt>
      <trkpt lat="45.97485" lon="6.69399">
        <ele>2503.5339355469</ele>
        <time>2017-04-29T10:58:19Z</time>
      </trkpt>
      <trkpt lat="45.9749" lon="6.69392">
        <ele>2499.1411132812</ele>
        <time>2017-04-29T10:59:06Z</time>
      </trkpt>
      <trkpt lat="45.97488" lon="6.69402">
        <ele>2498.7939453125</ele>
        <time>2017-04-29T10:59:18Z</time>
      </trkpt>
      <trkpt lat="45.97489" lon="6.69413">
        <ele>2498.2629394531</ele>
        <time>2017-04-29T10:59:23Z</time>
      </trkpt>
      <trkpt lat="45.97497" lon="6.6943">
        <ele>2494.9040527344</ele>
        <time>2017-04-29T10:59:34Z</time>
      </trkpt>
      <trkpt lat="45.97504" lon="6.69426">
        <ele>2492.416015625</ele>
        <time>2017-04-29T10:59:45Z</time>
      </trkpt>
      <trkpt lat="45.97513" lon="6.69422">
        <ele>2490.4350585938</ele>
        <time>2017-04-29T10:59:50Z</time>
      </trkpt>
      <trkpt lat="45.97518" lon="6.69413">
        <ele>2488.6010742188</ele>
        <time>2017-04-29T10:59:55Z</time>
      </trkpt>
      <trkpt lat="45.97524" lon="6.69404">
        <ele>2486.6818847656</ele>
        <time>2017-04-29T11:00:00Z</time>
      </trkpt>
      <trkpt lat="45.97534" lon="6.69383">
        <ele>2480.4929199219</ele>
        <time>2017-04-29T11:00:06Z</time>
      </trkpt>
      <trkpt lat="45.97543" lon="6.69389">
        <ele>2472.6579589844</ele>
        <time>2017-04-29T11:00:19Z</time>
      </trkpt>
      <trkpt lat="45.97553" lon="6.69413">
        <ele>2459.6640625</ele>
        <time>2017-04-29T11:00:25Z</time>
      </trkpt>
      <trkpt lat="45.97553" lon="6.69424">
        <ele>2454.8459472656</ele>
        <time>2017-04-29T11:00:27Z</time>
      </trkpt>
      <trkpt lat="45.97559" lon="6.69439">
        <ele>2450.3181152344</ele>
        <time>2017-04-29T11:00:53Z</time>
      </trkpt>
      <trkpt lat="45.97555" lon="6.69448">
        <ele>2446.5358886719</ele>
        <time>2017-04-29T11:03:17Z</time>
      </trkpt>
      <trkpt lat="45.97563" lon="6.69454">
        <ele>2436.5270996094</ele>
        <time>2017-04-29T11:03:43Z</time>
      </trkpt>
      <trkpt lat="45.97571" lon="6.6946">
        <ele>2432.4340820312</ele>
        <time>2017-04-29T11:03:47Z</time>
      </trkpt>
      <trkpt lat="45.97587" lon="6.69453">
        <ele>2429.7009277344</ele>
        <time>2017-04-29T11:03:54Z</time>
      </trkpt>
      <trkpt lat="45.97593" lon="6.69444">
        <ele>2422.6721191406</ele>
        <time>2017-04-29T11:05:10Z</time>
      </trkpt>
      <trkpt lat="45.97601" lon="6.69442">
        <ele>2421.3159179688</ele>
        <time>2017-04-29T11:05:18Z</time>
      </trkpt>
      <trkpt lat="45.97613" lon="6.69455">
        <ele>2413.7009277344</ele>
        <time>2017-04-29T11:05:26Z</time>
      </trkpt>
      <trkpt lat="45.97619" lon="6.69464">
        <ele>2412.3278808594</ele>
        <time>2017-04-29T11:05:29Z</time>
      </trkpt>
      <trkpt lat="45.97634" lon="6.69479">
        <ele>2402.4770507812</ele>
        <time>2017-04-29T11:05:36Z</time>
      </trkpt>
      <trkpt lat="45.97641" lon="6.69474">
        <ele>2393.5100097656</ele>
        <time>2017-04-29T11:06:13Z</time>
      </trkpt>
      <trkpt lat="45.97647" lon="6.69466">
        <ele>2388.5830078125</ele>
        <time>2017-04-29T11:07:14Z</time>
      </trkpt>
      <trkpt lat="45.97662" lon="6.69463">
        <ele>2366.5100097656</ele>
        <time>2017-04-29T11:07:21Z</time>
      </trkpt>
      <trkpt lat="45.97692" lon="6.69468">
        <ele>2352.587890625</ele>
        <time>2017-04-29T11:07:28Z</time>
      </trkpt>
      <trkpt lat="45.97699" lon="6.69463">
        <ele>2352.2209472656</ele>
        <time>2017-04-29T11:08:47Z</time>
      </trkpt>
      <trkpt lat="45.97715" lon="6.69481">
        <ele>2343.1550292969</ele>
        <time>2017-04-29T11:08:53Z</time>
      </trkpt>
      <trkpt lat="45.97735" lon="6.6948">
        <ele>2327.8469238281</ele>
        <time>2017-04-29T11:08:58Z</time>
      </trkpt>
      <trkpt lat="45.9776" lon="6.69467">
        <ele>2316.1450195312</ele>
        <time>2017-04-29T11:09:04Z</time>
      </trkpt>
      <trkpt lat="45.97784" lon="6.69449">
        <ele>2298.62109375</ele>
        <time>2017-04-29T11:09:41Z</time>
      </trkpt>
      <trkpt lat="45.97792" lon="6.69445">
        <ele>2286.5390625</ele>
        <time>2017-04-29T11:09:43Z</time>
      </trkpt>
      <trkpt lat="45.97814" lon="6.69421">
        <ele>2272.5200195312</ele>
        <time>2017-04-29T11:09:49Z</time>
      </trkpt>
      <trkpt lat="45.9784" lon="6.69409">
        <ele>2261.9680175781</ele>
        <time>2017-04-29T11:09:55Z</time>
      </trkpt>
      <trkpt lat="45.97859" lon="6.69392">
        <ele>2256.7270507812</ele>
        <time>2017-04-29T11:09:59Z</time>
      </trkpt>
      <trkpt lat="45.97878" lon="6.69388">
        <ele>2251.3010253906</ele>
        <time>2017-04-29T11:10:05Z</time>
      </trkpt>
      <trkpt lat="45.97885" lon="6.69392">
        <ele>2246.1379394531</ele>
        <time>2017-04-29T11:11:52Z</time>
      </trkpt>
      <trkpt lat="45.97902" lon="6.69385">
        <ele>2239.8029785156</ele>
        <time>2017-04-29T11:11:58Z</time>
      </trkpt>
      <trkpt lat="45.97916" lon="6.69373">
        <ele>2229.6369628906</ele>
        <time>2017-04-29T11:12:04Z</time>
      </trkpt>
      <trkpt lat="45.97928" lon="6.69371">
        <ele>2221.0161132812</ele>
        <time>2017-04-29T11:12:10Z</time>
      </trkpt>
      <trkpt lat="45.97935" lon="6.69377">
        <ele>2220.2829589844</ele>
        <time>2017-04-29T11:12:13Z</time>
      </trkpt>
      <trkpt lat="45.97948" lon="6.69361">
        <ele>2206.8020019531</ele>
        <time>2017-04-29T11:12:18Z</time>
      </trkpt>
      <trkpt lat="45.97962" lon="6.69353">
        <ele>2193.5649414062</ele>
        <time>2017-04-29T11:12:22Z</time>
      </trkpt>
      <trkpt lat="45.97989" lon="6.69345">
        <ele>2182.4299316406</ele>
        <time>2017-04-29T11:12:28Z</time>
      </trkpt>
      <trkpt lat="45.97996" lon="6.69348">
        <ele>2179.6369628906</ele>
        <time>2017-04-29T11:12:39Z</time>
      </trkpt>
      <trkpt lat="45.98003" lon="6.69352">
        <ele>2176.833984375</ele>
        <time>2017-04-29T11:12:46Z</time>
      </trkpt>
      <trkpt lat="45.98007" lon="6.69361">
        <ele>2175.0900878906</ele>
        <time>2017-04-29T11:12:50Z</time>
      </trkpt>
      <trkpt lat="45.98008" lon="6.69386">
        <ele>2172.3669433594</ele>
        <time>2017-04-29T11:12:59Z</time>
      </trkpt>
      <trkpt lat="45.98008" lon="6.69396">
        <ele>2169.9431152344</ele>
        <time>2017-04-29T11:14:15Z</time>
      </trkpt>
      <trkpt lat="45.98002" lon="6.69402">
        <ele>2167.8579101562</ele>
        <time>2017-04-29T11:15:25Z</time>
      </trkpt>
      <trkpt lat="45.98007" lon="6.69396">
        <ele>2167.7229003906</ele>
        <time>2017-04-29T11:15:58Z</time>
      </trkpt>
      <trkpt lat="45.98008" lon="6.69407">
        <ele>2167.9770507812</ele>
        <time>2017-04-29T11:25:06Z</time>
      </trkpt>
      <trkpt lat="45.98007" lon="6.69418">
        <ele>2168.1379394531</ele>
        <time>2017-04-29T11:25:12Z</time>
      </trkpt>
      <trkpt lat="45.98006" lon="6.69429">
        <ele>2168.3879394531</ele>
        <time>2017-04-29T11:25:20Z</time>
      </trkpt>
      <trkpt lat="45.98005" lon="6.69439">
        <ele>2168.6689453125</ele>
        <time>2017-04-29T11:25:29Z</time>
      </trkpt>
      <trkpt lat="45.98003" lon="6.6945">
        <ele>2169.2309570312</ele>
        <time>2017-04-29T11:25:35Z</time>
      </trkpt>
      <trkpt lat="45.98002" lon="6.69461">
        <ele>2169.6298828125</ele>
        <time>2017-04-29T11:25:42Z</time>
      </trkpt>
      <trkpt lat="45.97999" lon="6.69472">
        <ele>2170.5620117188</ele>
        <time>2017-04-29T11:25:51Z</time>
      </trkpt>
      <trkpt lat="45.97999" lon="6.69482">
        <ele>2172.0148925781</ele>
        <time>2017-04-29T11:26:04Z</time>
      </trkpt>
      <trkpt lat="45.97997" lon="6.69493">
        <ele>2172.7829589844</ele>
        <time>2017-04-29T11:26:12Z</time>
      </trkpt>
      <trkpt lat="45.97997" lon="6.69504">
        <ele>2173.9929199219</ele>
        <time>2017-04-29T11:26:22Z</time>
      </trkpt>
      <trkpt lat="45.97995" lon="6.69516">
        <ele>2174.3959960938</ele>
        <time>2017-04-29T11:26:27Z</time>
      </trkpt>
      <trkpt lat="45.97992" lon="6.69526">
        <ele>2174.5739746094</ele>
        <time>2017-04-29T11:26:34Z</time>
      </trkpt>
      <trkpt lat="45.97992" lon="6.69537">
        <ele>2174.2619628906</ele>
        <time>2017-04-29T11:26:39Z</time>
      </trkpt>
      <trkpt lat="45.97988" lon="6.69546">
        <ele>2173.1931152344</ele>
        <time>2017-04-29T11:26:50Z</time>
      </trkpt>
      <trkpt lat="45.9799" lon="6.69568">
        <ele>2171.3540039062</ele>
        <time>2017-04-29T11:27:03Z</time>
      </trkpt>
      <trkpt lat="45.97988" lon="6.69579">
        <ele>2170.9919433594</ele>
        <time>2017-04-29T11:27:09Z</time>
      </trkpt>
      <trkpt lat="45.9799" lon="6.69589">
        <ele>2170.9890136719</ele>
        <time>2017-04-29T11:27:18Z</time>
      </trkpt>
      <trkpt lat="45.97989" lon="6.69599">
        <ele>2170.9479980469</ele>
        <time>2017-04-29T11:27:29Z</time>
      </trkpt>
      <trkpt lat="45.97988" lon="6.6961">
        <ele>2170.7319335938</ele>
        <time>2017-04-29T11:27:37Z</time>
      </trkpt>
      <trkpt lat="45.97988" lon="6.69621">
        <ele>2169.7351074219</ele>
        <time>2017-04-29T11:27:46Z</time>
      </trkpt>
      <trkpt lat="45.9799" lon="6.69632">
        <ele>2169.1750488281</ele>
        <time>2017-04-29T11:27:54Z</time>
      </trkpt>
      <trkpt lat="45.97992" lon="6.69642">
        <ele>2169.5568847656</ele>
        <time>2017-04-29T11:28:03Z</time>
      </trkpt>
      <trkpt lat="45.9799" lon="6.69653">
        <ele>2170.9089355469</ele>
        <time>2017-04-29T11:28:11Z</time>
      </trkpt>
      <trkpt lat="45.97986" lon="6.69663">
        <ele>2172.2080078125</ele>
        <time>2017-04-29T11:28:18Z</time>
      </trkpt>
      <trkpt lat="45.97987" lon="6.69674">
        <ele>2173.00390625</ele>
        <time>2017-04-29T11:28:24Z</time>
      </trkpt>
      <trkpt lat="45.97991" lon="6.69686">
        <ele>2173.5170898438</ele>
        <time>2017-04-29T11:28:35Z</time>
      </trkpt>
      <trkpt lat="45.97993" lon="6.69696">
        <ele>2174.1340332031</ele>
        <time>2017-04-29T11:28:42Z</time>
      </trkpt>
      <trkpt lat="45.97995" lon="6.69707">
        <ele>2174.7429199219</ele>
        <time>2017-04-29T11:28:52Z</time>
      </trkpt>
      <trkpt lat="45.97995" lon="6.69717">
        <ele>2174.6960449219</ele>
        <time>2017-04-29T11:29:01Z</time>
      </trkpt>
      <trkpt lat="45.97998" lon="6.69727">
        <ele>2174.7080078125</ele>
        <time>2017-04-29T11:29:08Z</time>
      </trkpt>
      <trkpt lat="45.98" lon="6.69739">
        <ele>2175.4140625</ele>
        <time>2017-04-29T11:29:16Z</time>
      </trkpt>
      <trkpt lat="45.98005" lon="6.69749">
        <ele>2175.8110351562</ele>
        <time>2017-04-29T11:29:21Z</time>
      </trkpt>
      <trkpt lat="45.98013" lon="6.69766">
        <ele>2175.208984375</ele>
        <time>2017-04-29T11:29:34Z</time>
      </trkpt>
      <trkpt lat="45.98015" lon="6.69777">
        <ele>2174.8420410156</ele>
        <time>2017-04-29T11:29:42Z</time>
      </trkpt>
      <trkpt lat="45.98021" lon="6.69784">
        <ele>2175.8940429688</ele>
        <time>2017-04-29T11:29:54Z</time>
      </trkpt>
      <trkpt lat="45.98025" lon="6.69794">
        <ele>2175.8679199219</ele>
        <time>2017-04-29T11:30:04Z</time>
      </trkpt>
      <trkpt lat="45.98029" lon="6.69803">
        <ele>2175.7600097656</ele>
        <time>2017-04-29T11:30:10Z</time>
      </trkpt>
      <trkpt lat="45.98035" lon="6.69809">
        <ele>2174.912109375</ele>
        <time>2017-04-29T11:30:21Z</time>
      </trkpt>
      <trkpt lat="45.98041" lon="6.69816">
        <ele>2173.3210449219</ele>
        <time>2017-04-29T11:30:31Z</time>
      </trkpt>
      <trkpt lat="45.98045" lon="6.69824">
        <ele>2172.8920898438</ele>
        <time>2017-04-29T11:30:38Z</time>
      </trkpt>
      <trkpt lat="45.9805" lon="6.69833">
        <ele>2172.7849121094</ele>
        <time>2017-04-29T11:30:47Z</time>
      </trkpt>
      <trkpt lat="45.98054" lon="6.69842">
        <ele>2173.4479980469</ele>
        <time>2017-04-29T11:30:56Z</time>
      </trkpt>
      <trkpt lat="45.9806" lon="6.69849">
        <ele>2175.70703125</ele>
        <time>2017-04-29T11:31:09Z</time>
      </trkpt>
      <trkpt lat="45.98064" lon="6.69858">
        <ele>2177.7900390625</ele>
        <time>2017-04-29T11:31:19Z</time>
      </trkpt>
      <trkpt lat="45.98069" lon="6.69852">
        <ele>2182.4719238281</ele>
        <time>2017-04-29T11:31:39Z</time>
      </trkpt>
      <trkpt lat="45.98068" lon="6.69841">
        <ele>2184.0749511719</ele>
        <time>2017-04-29T11:31:58Z</time>
      </trkpt>
      <trkpt lat="45.98075" lon="6.69838">
        <ele>2186.501953125</ele>
        <time>2017-04-29T11:32:12Z</time>
      </trkpt>
      <trkpt lat="45.98083" lon="6.69834">
        <ele>2188.1188964844</ele>
        <time>2017-04-29T11:32:24Z</time>
      </trkpt>
      <trkpt lat="45.98089" lon="6.69829">
        <ele>2189.1130371094</ele>
        <time>2017-04-29T11:32:28Z</time>
      </trkpt>
      <trkpt lat="45.98095" lon="6.69836">
        <ele>2192.1909179688</ele>
        <time>2017-04-29T11:33:11Z</time>
      </trkpt>
      <trkpt lat="45.98092" lon="6.69848">
        <ele>2193.7099609375</ele>
        <time>2017-04-29T11:33:21Z</time>
      </trkpt>
      <trkpt lat="45.98093" lon="6.69859">
        <ele>2199.2280273438</ele>
        <time>2017-04-29T11:33:40Z</time>
      </trkpt>
      <trkpt lat="45.981" lon="6.69858">
        <ele>2204.4079589844</ele>
        <time>2017-04-29T11:34:01Z</time>
      </trkpt>
      <trkpt lat="45.98102" lon="6.69848">
        <ele>2205.9208984375</ele>
        <time>2017-04-29T11:34:12Z</time>
      </trkpt>
      <trkpt lat="45.98102" lon="6.69859">
        <ele>2208.8330078125</ele>
        <time>2017-04-29T11:34:32Z</time>
      </trkpt>
      <trkpt lat="45.9811" lon="6.69859">
        <ele>2214.7028808594</ele>
        <time>2017-04-29T11:35:03Z</time>
      </trkpt>
      <trkpt lat="45.98113" lon="6.6985">
        <ele>2216.4260253906</ele>
        <time>2017-04-29T11:35:15Z</time>
      </trkpt>
      <trkpt lat="45.98115" lon="6.69861">
        <ele>2223.6279296875</ele>
        <time>2017-04-29T11:36:19Z</time>
      </trkpt>
      <trkpt lat="45.98116" lon="6.69872">
        <ele>2224.787109375</ele>
        <time>2017-04-29T11:36:27Z</time>
      </trkpt>
      <trkpt lat="45.98116" lon="6.69883">
        <ele>2225.8229980469</ele>
        <time>2017-04-29T11:36:38Z</time>
      </trkpt>
      <trkpt lat="45.98117" lon="6.69894">
        <ele>2225.5510253906</ele>
        <time>2017-04-29T11:36:57Z</time>
      </trkpt>
      <trkpt lat="45.98117" lon="6.69905">
        <ele>2225.0458984375</ele>
        <time>2017-04-29T11:37:04Z</time>
      </trkpt>
      <trkpt lat="45.98118" lon="6.69916">
        <ele>2225.4309082031</ele>
        <time>2017-04-29T11:37:12Z</time>
      </trkpt>
      <trkpt lat="45.98113" lon="6.69924">
        <ele>2225.6669921875</ele>
        <time>2017-04-29T11:37:20Z</time>
      </trkpt>
      <trkpt lat="45.98108" lon="6.69932">
        <ele>2226.8049316406</ele>
        <time>2017-04-29T11:37:30Z</time>
      </trkpt>
      <trkpt lat="45.98104" lon="6.6994">
        <ele>2228.2980957031</ele>
        <time>2017-04-29T11:37:39Z</time>
      </trkpt>
      <trkpt lat="45.98099" lon="6.6995">
        <ele>2229.4020996094</ele>
        <time>2017-04-29T11:37:54Z</time>
      </trkpt>
      <trkpt lat="45.98093" lon="6.69958">
        <ele>2229.7561035156</ele>
        <time>2017-04-29T11:38:07Z</time>
      </trkpt>
      <trkpt lat="45.98091" lon="6.69968">
        <ele>2229.0720214844</ele>
        <time>2017-04-29T11:39:45Z</time>
      </trkpt>
      <trkpt lat="45.98085" lon="6.69974">
        <ele>2229.6499023438</ele>
        <time>2017-04-29T11:39:50Z</time>
      </trkpt>
      <trkpt lat="45.98079" lon="6.69981">
        <ele>2230.3269042969</ele>
        <time>2017-04-29T11:39:57Z</time>
      </trkpt>
      <trkpt lat="45.98074" lon="6.69989">
        <ele>2232.1730957031</ele>
        <time>2017-04-29T11:40:05Z</time>
      </trkpt>
      <trkpt lat="45.98069" lon="6.69998">
        <ele>2233.6030273438</ele>
        <time>2017-04-29T11:40:14Z</time>
      </trkpt>
      <trkpt lat="45.98065" lon="6.70007">
        <ele>2236.125</ele>
        <time>2017-04-29T11:40:27Z</time>
      </trkpt>
      <trkpt lat="45.98061" lon="6.70015">
        <ele>2238.8569335938</ele>
        <time>2017-04-29T11:40:43Z</time>
      </trkpt>
      <trkpt lat="45.98063" lon="6.70027">
        <ele>2240.9709472656</ele>
        <time>2017-04-29T11:40:53Z</time>
      </trkpt>
      <trkpt lat="45.98071" lon="6.70023">
        <ele>2242.5070800781</ele>
        <time>2017-04-29T11:41:05Z</time>
      </trkpt>
      <trkpt lat="45.98077" lon="6.70017">
        <ele>2243.4230957031</ele>
        <time>2017-04-29T11:41:16Z</time>
      </trkpt>
      <trkpt lat="45.98084" lon="6.70015">
        <ele>2243.6970214844</ele>
        <time>2017-04-29T11:41:24Z</time>
      </trkpt>
      <trkpt lat="45.98087" lon="6.70025">
        <ele>2243.2790527344</ele>
        <time>2017-04-29T11:41:40Z</time>
      </trkpt>
      <trkpt lat="45.98089" lon="6.70035">
        <ele>2243.3889160156</ele>
        <time>2017-04-29T11:41:51Z</time>
      </trkpt>
      <trkpt lat="45.98092" lon="6.70045">
        <ele>2244.8010253906</ele>
        <time>2017-04-29T11:42:11Z</time>
      </trkpt>
      <trkpt lat="45.98095" lon="6.70055">
        <ele>2244.0458984375</ele>
        <time>2017-04-29T11:42:19Z</time>
      </trkpt>
      <trkpt lat="45.98101" lon="6.70065">
        <ele>2244.1149902344</ele>
        <time>2017-04-29T11:42:31Z</time>
      </trkpt>
      <trkpt lat="45.98103" lon="6.70076">
        <ele>2244.2150878906</ele>
        <time>2017-04-29T11:42:38Z</time>
      </trkpt>
      <trkpt lat="45.98105" lon="6.70087">
        <ele>2243.8090820312</ele>
        <time>2017-04-29T11:42:43Z</time>
      </trkpt>
      <trkpt lat="45.98107" lon="6.70096">
        <ele>2243.6630859375</ele>
        <time>2017-04-29T11:42:49Z</time>
      </trkpt>
      <trkpt lat="45.98111" lon="6.70105">
        <ele>2242.6918945312</ele>
        <time>2017-04-29T11:42:59Z</time>
      </trkpt>
      <trkpt lat="45.98115" lon="6.70115">
        <ele>2242.5581054688</ele>
        <time>2017-04-29T11:43:08Z</time>
      </trkpt>
      <trkpt lat="45.9812" lon="6.70123">
        <ele>2242.8449707031</ele>
        <time>2017-04-29T11:43:17Z</time>
      </trkpt>
      <trkpt lat="45.98124" lon="6.70132">
        <ele>2242.712890625</ele>
        <time>2017-04-29T11:43:24Z</time>
      </trkpt>
      <trkpt lat="45.9813" lon="6.70137">
        <ele>2243.0109863281</ele>
        <time>2017-04-29T11:43:33Z</time>
      </trkpt>
      <trkpt lat="45.98135" lon="6.70146">
        <ele>2243.3579101562</ele>
        <time>2017-04-29T11:43:45Z</time>
      </trkpt>
      <trkpt lat="45.9814" lon="6.70155">
        <ele>2242.9719238281</ele>
        <time>2017-04-29T11:43:53Z</time>
      </trkpt>
      <trkpt lat="45.98145" lon="6.70161">
        <ele>2243.4030761719</ele>
        <time>2017-04-29T11:44:03Z</time>
      </trkpt>
      <trkpt lat="45.9815" lon="6.70171">
        <ele>2243.3020019531</ele>
        <time>2017-04-29T11:44:12Z</time>
      </trkpt>
      <trkpt lat="45.98156" lon="6.70178">
        <ele>2243.2819824219</ele>
        <time>2017-04-29T11:44:20Z</time>
      </trkpt>
      <trkpt lat="45.98159" lon="6.70188">
        <ele>2243.4699707031</ele>
        <time>2017-04-29T11:44:27Z</time>
      </trkpt>
      <trkpt lat="45.98163" lon="6.70197">
        <ele>2243.3491210938</ele>
        <time>2017-04-29T11:44:34Z</time>
      </trkpt>
      <trkpt lat="45.98166" lon="6.70207">
        <ele>2243.8510742188</ele>
        <time>2017-04-29T11:44:43Z</time>
      </trkpt>
      <trkpt lat="45.98169" lon="6.70217">
        <ele>2244.3059082031</ele>
        <time>2017-04-29T11:44:52Z</time>
      </trkpt>
      <trkpt lat="45.98174" lon="6.70225">
        <ele>2245.0061035156</ele>
        <time>2017-04-29T11:45:02Z</time>
      </trkpt>
      <trkpt lat="45.98182" lon="6.70226">
        <ele>2247.3168945312</ele>
        <time>2017-04-29T11:45:16Z</time>
      </trkpt>
      <trkpt lat="45.9819" lon="6.70231">
        <ele>2247.208984375</ele>
        <time>2017-04-29T11:45:25Z</time>
      </trkpt>
      <trkpt lat="45.98197" lon="6.70236">
        <ele>2247.712890625</ele>
        <time>2017-04-29T11:45:34Z</time>
      </trkpt>
      <trkpt lat="45.98203" lon="6.70242">
        <ele>2247.7609863281</ele>
        <time>2017-04-29T11:45:43Z</time>
      </trkpt>
      <trkpt lat="45.9821" lon="6.70249">
        <ele>2247.9208984375</ele>
        <time>2017-04-29T11:45:54Z</time>
      </trkpt>
      <trkpt lat="45.98217" lon="6.70253">
        <ele>2249.5510253906</ele>
        <time>2017-04-29T11:47:04Z</time>
      </trkpt>
      <trkpt lat="45.98224" lon="6.70259">
        <ele>2249.0939941406</ele>
        <time>2017-04-29T11:47:15Z</time>
      </trkpt>
      <trkpt lat="45.98232" lon="6.70263">
        <ele>2249.4699707031</ele>
        <time>2017-04-29T11:47:26Z</time>
      </trkpt>
      <trkpt lat="45.98245" lon="6.70277">
        <ele>2248.462890625</ele>
        <time>2017-04-29T11:47:32Z</time>
      </trkpt>
      <trkpt lat="45.98247" lon="6.70287">
        <ele>2248.6608886719</ele>
        <time>2017-04-29T11:48:01Z</time>
      </trkpt>
      <trkpt lat="45.9825" lon="6.70301">
        <ele>2248.2419433594</ele>
        <time>2017-04-29T11:48:03Z</time>
      </trkpt>
      <trkpt lat="45.98268" lon="6.70351">
        <ele>2240.7019042969</ele>
        <time>2017-04-29T11:48:09Z</time>
      </trkpt>
      <trkpt lat="45.98276" lon="6.70373">
        <ele>2238.6169433594</ele>
        <time>2017-04-29T11:48:15Z</time>
      </trkpt>
      <trkpt lat="45.98287" lon="6.70391">
        <ele>2237.74609375</ele>
        <time>2017-04-29T11:48:22Z</time>
      </trkpt>
      <trkpt lat="45.98292" lon="6.70402">
        <ele>2237.0129394531</ele>
        <time>2017-04-29T11:48:29Z</time>
      </trkpt>
      <trkpt lat="45.98296" lon="6.7041">
        <ele>2236.58203125</ele>
        <time>2017-04-29T11:48:34Z</time>
      </trkpt>
      <trkpt lat="45.98301" lon="6.70418">
        <ele>2236.20703125</ele>
        <time>2017-04-29T11:48:39Z</time>
      </trkpt>
      <trkpt lat="45.98308" lon="6.70427">
        <ele>2236.5610351562</ele>
        <time>2017-04-29T11:48:47Z</time>
      </trkpt>
      <trkpt lat="45.98318" lon="6.70445">
        <ele>2236.8181152344</ele>
        <time>2017-04-29T11:49:12Z</time>
      </trkpt>
      <trkpt lat="45.98336" lon="6.70464">
        <ele>2231.7609863281</ele>
        <time>2017-04-29T11:49:19Z</time>
      </trkpt>
      <trkpt lat="45.98359" lon="6.70479">
        <ele>2223.5048828125</ele>
        <time>2017-04-29T11:53:09Z</time>
      </trkpt>
      <trkpt lat="45.98355" lon="6.70488">
        <ele>2222.4741210938</ele>
        <time>2017-04-29T11:53:31Z</time>
      </trkpt>
      <trkpt lat="45.98361" lon="6.70496">
        <ele>2223.4909667969</ele>
        <time>2017-04-29T12:01:33Z</time>
      </trkpt>
      <trkpt lat="45.98372" lon="6.70506">
        <ele>2223.0029296875</ele>
        <time>2017-04-29T12:01:35Z</time>
      </trkpt>
      <trkpt lat="45.98395" lon="6.70522">
        <ele>2220.2670898438</ele>
        <time>2017-04-29T12:01:39Z</time>
      </trkpt>
      <trkpt lat="45.98425" lon="6.70542">
        <ele>2214.1149902344</ele>
        <time>2017-04-29T12:01:44Z</time>
      </trkpt>
      <trkpt lat="45.98441" lon="6.70558">
        <ele>2211.4619140625</ele>
        <time>2017-04-29T12:01:48Z</time>
      </trkpt>
      <trkpt lat="45.9847" lon="6.70584">
        <ele>2206.2399902344</ele>
        <time>2017-04-29T12:01:54Z</time>
      </trkpt>
      <trkpt lat="45.98501" lon="6.70596">
        <ele>2206.7719726562</ele>
        <time>2017-04-29T12:01:59Z</time>
      </trkpt>
      <trkpt lat="45.98512" lon="6.70603">
        <ele>2207.1430664062</ele>
        <time>2017-04-29T12:02:05Z</time>
      </trkpt>
      <trkpt lat="45.98525" lon="6.70607">
        <ele>2200.0668945312</ele>
        <time>2017-04-29T12:02:18Z</time>
      </trkpt>
      <trkpt lat="45.98542" lon="6.70617">
        <ele>2197.3491210938</ele>
        <time>2017-04-29T12:02:23Z</time>
      </trkpt>
      <trkpt lat="45.98552" lon="6.70619">
        <ele>2196.87109375</ele>
        <time>2017-04-29T12:02:26Z</time>
      </trkpt>
      <trkpt lat="45.9857" lon="6.70616">
        <ele>2195.2900390625</ele>
        <time>2017-04-29T12:02:40Z</time>
      </trkpt>
      <trkpt lat="45.98578" lon="6.70613">
        <ele>2198.7338867188</ele>
        <time>2017-04-29T12:05:22Z</time>
      </trkpt>
      <trkpt lat="45.98607" lon="6.7061">
        <ele>2202.2060546875</ele>
        <time>2017-04-29T12:05:27Z</time>
      </trkpt>
      <trkpt lat="45.98638" lon="6.70616">
        <ele>2199.0380859375</ele>
        <time>2017-04-29T12:05:32Z</time>
      </trkpt>
      <trkpt lat="45.98665" lon="6.70624">
        <ele>2191.9509277344</ele>
        <time>2017-04-29T12:05:38Z</time>
      </trkpt>
      <trkpt lat="45.98676" lon="6.70639">
        <ele>2187.9360351562</ele>
        <time>2017-04-29T12:05:45Z</time>
      </trkpt>
      <trkpt lat="45.9869" lon="6.70652">
        <ele>2185.5249023438</ele>
        <time>2017-04-29T12:05:51Z</time>
      </trkpt>
      <trkpt lat="45.98706" lon="6.70654">
        <ele>2177.5568847656</ele>
        <time>2017-04-29T12:06:06Z</time>
      </trkpt>
      <trkpt lat="45.98732" lon="6.70639">
        <ele>2164.7409667969</ele>
        <time>2017-04-29T12:06:11Z</time>
      </trkpt>
      <trkpt lat="45.98752" lon="6.70631">
        <ele>2159.2819824219</ele>
        <time>2017-04-29T12:06:15Z</time>
      </trkpt>
      <trkpt lat="45.98791" lon="6.70622">
        <ele>2150.0161132812</ele>
        <time>2017-04-29T12:06:21Z</time>
      </trkpt>
      <trkpt lat="45.98822" lon="6.70618">
        <ele>2146.8491210938</ele>
        <time>2017-04-29T12:06:26Z</time>
      </trkpt>
      <trkpt lat="45.98837" lon="6.70609">
        <ele>2143.2719726562</ele>
        <time>2017-04-29T12:06:33Z</time>
      </trkpt>
      <trkpt lat="45.9885" lon="6.70606">
        <ele>2141.6110839844</ele>
        <time>2017-04-29T12:06:59Z</time>
      </trkpt>
      <trkpt lat="45.98867" lon="6.70605">
        <ele>2134.7829589844</ele>
        <time>2017-04-29T12:07:03Z</time>
      </trkpt>
      <trkpt lat="45.98901" lon="6.70595">
        <ele>2125.5319824219</ele>
        <time>2017-04-29T12:07:08Z</time>
      </trkpt>
      <trkpt lat="45.98926" lon="6.70592">
        <ele>2115.1188964844</ele>
        <time>2017-04-29T12:07:14Z</time>
      </trkpt>
      <trkpt lat="45.98936" lon="6.70593">
        <ele>2111.6030273438</ele>
        <time>2017-04-29T12:07:16Z</time>
      </trkpt>
      <trkpt lat="45.9897" lon="6.70601">
        <ele>2101.8959960938</ele>
        <time>2017-04-29T12:07:22Z</time>
      </trkpt>
      <trkpt lat="45.98983" lon="6.70599">
        <ele>2098.1330566406</ele>
        <time>2017-04-29T12:07:24Z</time>
      </trkpt>
      <trkpt lat="45.99015" lon="6.70591">
        <ele>2088.1201171875</ele>
        <time>2017-04-29T12:07:30Z</time>
      </trkpt>
      <trkpt lat="45.99045" lon="6.70572">
        <ele>2072.044921875</ele>
        <time>2017-04-29T12:07:36Z</time>
      </trkpt>
      <trkpt lat="45.99078" lon="6.70557">
        <ele>2061.7390136719</ele>
        <time>2017-04-29T12:07:41Z</time>
      </trkpt>
      <trkpt lat="45.99099" lon="6.70564">
        <ele>2044.9479980469</ele>
        <time>2017-04-29T12:13:14Z</time>
      </trkpt>
      <trkpt lat="45.99107" lon="6.70559">
        <ele>2043.1190185547</ele>
        <time>2017-04-29T12:13:55Z</time>
      </trkpt>
      <trkpt lat="45.99139" lon="6.7054">
        <ele>2037.9119873047</ele>
        <time>2017-04-29T12:14:01Z</time>
      </trkpt>
      <trkpt lat="45.99163" lon="6.70517">
        <ele>2034.4189453125</ele>
        <time>2017-04-29T12:14:07Z</time>
      </trkpt>
      <trkpt lat="45.99186" lon="6.70488">
        <ele>2028.9730224609</ele>
        <time>2017-04-29T12:14:13Z</time>
      </trkpt>
      <trkpt lat="45.99207" lon="6.70464">
        <ele>2023.8520507812</ele>
        <time>2017-04-29T12:14:19Z</time>
      </trkpt>
      <trkpt lat="45.99231" lon="6.70438">
        <ele>2012.1309814453</ele>
        <time>2017-04-29T12:14:25Z</time>
      </trkpt>
      <trkpt lat="45.99259" lon="6.70416">
        <ele>1999.8409423828</ele>
        <time>2017-04-29T12:14:31Z</time>
      </trkpt>
      <trkpt lat="45.99284" lon="6.7039">
        <ele>1992.0340576172</ele>
        <time>2017-04-29T12:14:37Z</time>
      </trkpt>
      <trkpt lat="45.99277" lon="6.70388">
        <ele>1988.2099609375</ele>
        <time>2017-04-29T12:15:09Z</time>
      </trkpt>
      <trkpt lat="45.99284" lon="6.70389">
        <ele>1979.1199951172</ele>
        <time>2017-04-29T12:17:38Z</time>
      </trkpt>
      <trkpt lat="45.99317" lon="6.70379">
        <ele>1977.8540039062</ele>
        <time>2017-04-29T12:17:45Z</time>
      </trkpt>
      <trkpt lat="45.99349" lon="6.7038">
        <ele>1974.4370117188</ele>
        <time>2017-04-29T12:17:52Z</time>
      </trkpt>
      <trkpt lat="45.99358" lon="6.70383">
        <ele>1969.95703125</ele>
        <time>2017-04-29T12:17:54Z</time>
      </trkpt>
      <trkpt lat="45.99391" lon="6.70374">
        <ele>1954.0880126953</ele>
        <time>2017-04-29T12:18:00Z</time>
      </trkpt>
      <trkpt lat="45.99419" lon="6.70356">
        <ele>1942.6579589844</ele>
        <time>2017-04-29T12:18:06Z</time>
      </trkpt>
      <trkpt lat="45.99429" lon="6.70327">
        <ele>1933.6500244141</ele>
        <time>2017-04-29T12:18:10Z</time>
      </trkpt>
      <trkpt lat="45.99422" lon="6.70316">
        <ele>1927.3199462891</ele>
        <time>2017-04-29T12:19:24Z</time>
      </trkpt>
      <trkpt lat="45.9943" lon="6.70311">
        <ele>1922.5159912109</ele>
        <time>2017-04-29T12:19:45Z</time>
      </trkpt>
      <trkpt lat="45.99439" lon="6.7031">
        <ele>1920.9849853516</ele>
        <time>2017-04-29T12:19:47Z</time>
      </trkpt>
      <trkpt lat="45.99465" lon="6.7031">
        <ele>1912.3010253906</ele>
        <time>2017-04-29T12:19:53Z</time>
      </trkpt>
      <trkpt lat="45.99496" lon="6.70298">
        <ele>1902.2280273438</ele>
        <time>2017-04-29T12:20:00Z</time>
      </trkpt>
      <trkpt lat="45.9951" lon="6.70275">
        <ele>1892.1820068359</ele>
        <time>2017-04-29T12:20:04Z</time>
      </trkpt>
      <trkpt lat="45.99533" lon="6.70252">
        <ele>1884.2709960938</ele>
        <time>2017-04-29T12:20:10Z</time>
      </trkpt>
      <trkpt lat="45.99555" lon="6.70225">
        <ele>1876.2130126953</ele>
        <time>2017-04-29T12:20:16Z</time>
      </trkpt>
      <trkpt lat="45.99576" lon="6.70208">
        <ele>1872.4539794922</ele>
        <time>2017-04-29T12:20:25Z</time>
      </trkpt>
      <trkpt lat="45.99582" lon="6.70203">
        <ele>1870.5069580078</ele>
        <time>2017-04-29T12:20:40Z</time>
      </trkpt>
      <trkpt lat="45.99588" lon="6.7021">
        <ele>1868.5140380859</ele>
        <time>2017-04-29T12:21:11Z</time>
      </trkpt>
      <trkpt lat="45.99596" lon="6.70213">
        <ele>1869.1629638672</ele>
        <time>2017-04-29T12:21:21Z</time>
      </trkpt>
      <trkpt lat="45.99616" lon="6.70213">
        <ele>1866.3699951172</ele>
        <time>2017-04-29T12:21:25Z</time>
      </trkpt>
      <trkpt lat="45.99631" lon="6.70202">
        <ele>1862.9520263672</ele>
        <time>2017-04-29T12:21:29Z</time>
      </trkpt>
      <trkpt lat="45.99646" lon="6.70193">
        <ele>1856.541015625</ele>
        <time>2017-04-29T12:21:34Z</time>
      </trkpt>
      <trkpt lat="45.99666" lon="6.70196">
        <ele>1852.4670410156</ele>
        <time>2017-04-29T12:21:39Z</time>
      </trkpt>
      <trkpt lat="45.99683" lon="6.70202">
        <ele>1845.2440185547</ele>
        <time>2017-04-29T12:21:44Z</time>
      </trkpt>
      <trkpt lat="45.99707" lon="6.7019">
        <ele>1835.3919677734</ele>
        <time>2017-04-29T12:21:50Z</time>
      </trkpt>
      <trkpt lat="45.99723" lon="6.70176">
        <ele>1829.8100585938</ele>
        <time>2017-04-29T12:21:55Z</time>
      </trkpt>
      <trkpt lat="45.99742" lon="6.70144">
        <ele>1815.4930419922</ele>
        <time>2017-04-29T12:22:02Z</time>
      </trkpt>
      <trkpt lat="45.99748" lon="6.7015">
        <ele>1813.0560302734</ele>
        <time>2017-04-29T12:22:58Z</time>
      </trkpt>
      <trkpt lat="45.99764" lon="6.70153">
        <ele>1804.5209960938</ele>
        <time>2017-04-29T12:23:06Z</time>
      </trkpt>
      <trkpt lat="45.9978" lon="6.70152">
        <ele>1795.54296875</ele>
        <time>2017-04-29T12:23:10Z</time>
      </trkpt>
      <trkpt lat="45.99792" lon="6.70134">
        <ele>1789.3990478516</ele>
        <time>2017-04-29T12:23:15Z</time>
      </trkpt>
      <trkpt lat="45.99787" lon="6.70126">
        <ele>1787.8000488281</ele>
        <time>2017-04-29T12:23:23Z</time>
      </trkpt>
      <trkpt lat="45.99792" lon="6.70118">
        <ele>1779.1700439453</ele>
        <time>2017-04-29T12:23:49Z</time>
      </trkpt>
      <trkpt lat="45.99799" lon="6.70112">
        <ele>1778.7259521484</ele>
        <time>2017-04-29T12:24:00Z</time>
      </trkpt>
      <trkpt lat="45.99815" lon="6.70115">
        <ele>1776.2700195312</ele>
        <time>2017-04-29T12:24:06Z</time>
      </trkpt>
      <trkpt lat="45.99824" lon="6.70117">
        <ele>1770.0290527344</ele>
        <time>2017-04-29T12:24:11Z</time>
      </trkpt>
      <trkpt lat="45.99841" lon="6.70121">
        <ele>1762.2249755859</ele>
        <time>2017-04-29T12:24:15Z</time>
      </trkpt>
      <trkpt lat="45.9986" lon="6.70101">
        <ele>1747.0190429688</ele>
        <time>2017-04-29T12:24:21Z</time>
      </trkpt>
      <trkpt lat="45.99881" lon="6.70078">
        <ele>1739.7989501953</ele>
        <time>2017-04-29T12:24:27Z</time>
      </trkpt>
      <trkpt lat="45.99881" lon="6.70068">
        <ele>1737.6979980469</ele>
        <time>2017-04-29T12:24:34Z</time>
      </trkpt>
      <trkpt lat="45.9988" lon="6.70055">
        <ele>1731.7919921875</ele>
        <time>2017-04-29T12:25:48Z</time>
      </trkpt>
      <trkpt lat="45.99888" lon="6.7005">
        <ele>1731.0780029297</ele>
        <time>2017-04-29T12:25:52Z</time>
      </trkpt>
      <trkpt lat="45.99905" lon="6.70031">
        <ele>1720.6669921875</ele>
        <time>2017-04-29T12:25:59Z</time>
      </trkpt>
      <trkpt lat="45.99922" lon="6.70012">
        <ele>1712.4189453125</ele>
        <time>2017-04-29T12:26:05Z</time>
      </trkpt>
      <trkpt lat="45.99934" lon="6.69992">
        <ele>1700.7010498047</ele>
        <time>2017-04-29T12:26:10Z</time>
      </trkpt>
      <trkpt lat="45.99942" lon="6.69985">
        <ele>1696.7380371094</ele>
        <time>2017-04-29T12:26:12Z</time>
      </trkpt>
      <trkpt lat="45.99968" lon="6.69968">
        <ele>1686.3299560547</ele>
        <time>2017-04-29T12:26:18Z</time>
      </trkpt>
      <trkpt lat="45.99992" lon="6.69944">
        <ele>1672.6109619141</ele>
        <time>2017-04-29T12:26:24Z</time>
      </trkpt>
      <trkpt lat="46" lon="6.69941">
        <ele>1670.2829589844</ele>
        <time>2017-04-29T12:26:26Z</time>
      </trkpt>
      <trkpt lat="46.00033" lon="6.69921">
        <ele>1665.8010253906</ele>
        <time>2017-04-29T12:26:32Z</time>
      </trkpt>
      <trkpt lat="46.0005" lon="6.69912">
        <ele>1665.7939453125</ele>
        <time>2017-04-29T12:26:39Z</time>
      </trkpt>
      <trkpt lat="46.00063" lon="6.699">
        <ele>1665.5</ele>
        <time>2017-04-29T12:26:44Z</time>
      </trkpt>
      <trkpt lat="46.00089" lon="6.6988">
        <ele>1663.3919677734</ele>
        <time>2017-04-29T12:26:50Z</time>
      </trkpt>
      <trkpt lat="46.00104" lon="6.69843">
        <ele>1658.125</ele>
        <time>2017-04-29T12:26:56Z</time>
      </trkpt>
      <trkpt lat="46.00119" lon="6.6983">
        <ele>1654.1490478516</ele>
        <time>2017-04-29T12:27:02Z</time>
      </trkpt>
      <trkpt lat="46.00141" lon="6.69799">
        <ele>1645.8439941406</ele>
        <time>2017-04-29T12:27:08Z</time>
      </trkpt>
      <trkpt lat="46.00154" lon="6.69777">
        <ele>1641.1920166016</ele>
        <time>2017-04-29T12:27:11Z</time>
      </trkpt>
      <trkpt lat="46.0018" lon="6.69752">
        <ele>1632.2299804688</ele>
        <time>2017-04-29T12:27:17Z</time>
      </trkpt>
      <trkpt lat="46.00209" lon="6.69733">
        <ele>1626.3609619141</ele>
        <time>2017-04-29T12:27:23Z</time>
      </trkpt>
      <trkpt lat="46.00245" lon="6.69709">
        <ele>1620.3830566406</ele>
        <time>2017-04-29T12:27:29Z</time>
      </trkpt>
      <trkpt lat="46.00253" lon="6.69694">
        <ele>1617.5080566406</ele>
        <time>2017-04-29T12:27:31Z</time>
      </trkpt>
      <trkpt lat="46.00277" lon="6.6965">
        <ele>1611.7449951172</ele>
        <time>2017-04-29T12:27:36Z</time>
      </trkpt>
      <trkpt lat="46.00288" lon="6.69593">
        <ele>1605.6879882812</ele>
        <time>2017-04-29T12:27:41Z</time>
      </trkpt>
      <trkpt lat="46.0029" lon="6.69579">
        <ele>1604.5279541016</ele>
        <time>2017-04-29T12:27:42Z</time>
      </trkpt>
      <trkpt lat="46.00295" lon="6.69525">
        <ele>1596.7590332031</ele>
        <time>2017-04-29T12:27:47Z</time>
      </trkpt>
      <trkpt lat="46.00296" lon="6.69478">
        <ele>1590.9129638672</ele>
        <time>2017-04-29T12:27:53Z</time>
      </trkpt>
      <trkpt lat="46.00296" lon="6.69441">
        <ele>1589.7249755859</ele>
        <time>2017-04-29T12:28:00Z</time>
      </trkpt>
      <trkpt lat="46.00296" lon="6.69415">
        <ele>1589.1169433594</ele>
        <time>2017-04-29T12:28:07Z</time>
      </trkpt>
      <trkpt lat="46.00298" lon="6.69388">
        <ele>1586.2850341797</ele>
        <time>2017-04-29T12:28:12Z</time>
      </trkpt>
      <trkpt lat="46.00301" lon="6.69364">
        <ele>1586.2700195312</ele>
        <time>2017-04-29T12:28:17Z</time>
      </trkpt>
      <trkpt lat="46.00307" lon="6.69341">
        <ele>1586.3630371094</ele>
        <time>2017-04-29T12:28:23Z</time>
      </trkpt>
      <trkpt lat="46.00313" lon="6.6932">
        <ele>1586.3699951172</ele>
        <time>2017-04-29T12:28:30Z</time>
      </trkpt>
      <trkpt lat="46.00317" lon="6.6931">
        <ele>1586.4329833984</ele>
        <time>2017-04-29T12:28:35Z</time>
      </trkpt>
      <trkpt lat="46.00328" lon="6.69295">
        <ele>1586.4739990234</ele>
        <time>2017-04-29T12:28:45Z</time>
      </trkpt>
      <trkpt lat="46.00333" lon="6.69284">
        <ele>1586.6080322266</ele>
        <time>2017-04-29T12:28:50Z</time>
      </trkpt>
      <trkpt lat="46.00336" lon="6.69274">
        <ele>1586.7819824219</ele>
        <time>2017-04-29T12:28:56Z</time>
      </trkpt>
      <trkpt lat="46.00336" lon="6.69263">
        <ele>1586.123046875</ele>
        <time>2017-04-29T12:29:02Z</time>
      </trkpt>
      <trkpt lat="46.00339" lon="6.69242">
        <ele>1584.7189941406</ele>
        <time>2017-04-29T12:29:13Z</time>
      </trkpt>
      <trkpt lat="46.00342" lon="6.69232">
        <ele>1584.4320068359</ele>
        <time>2017-04-29T12:29:18Z</time>
      </trkpt>
      <trkpt lat="46.00347" lon="6.69224">
        <ele>1584.0510253906</ele>
        <time>2017-04-29T12:29:23Z</time>
      </trkpt>
      <trkpt lat="46.00352" lon="6.69216">
        <ele>1584.2320556641</ele>
        <time>2017-04-29T12:29:28Z</time>
      </trkpt>
      <trkpt lat="46.00359" lon="6.69214">
        <ele>1583.7889404297</ele>
        <time>2017-04-29T12:29:35Z</time>
      </trkpt>
      <trkpt lat="46.00367" lon="6.69211">
        <ele>1583.9470214844</ele>
        <time>2017-04-29T12:29:40Z</time>
      </trkpt>
      <trkpt lat="46.00376" lon="6.69204">
        <ele>1582.6040039062</ele>
        <time>2017-04-29T12:30:15Z</time>
      </trkpt>
      <trkpt lat="46.00382" lon="6.69191">
        <ele>1580.9930419922</ele>
        <time>2017-04-29T12:30:32Z</time>
      </trkpt>
      <trkpt lat="46.00387" lon="6.69182">
        <ele>1580.6829833984</ele>
        <time>2017-04-29T12:30:45Z</time>
      </trkpt>
      <trkpt lat="46.00394" lon="6.69175">
        <ele>1579.6259765625</ele>
        <time>2017-04-29T12:30:56Z</time>
      </trkpt>
      <trkpt lat="46.00402" lon="6.69167">
        <ele>1579.1219482422</ele>
        <time>2017-04-29T12:31:06Z</time>
      </trkpt>
      <trkpt lat="46.00412" lon="6.69161">
        <ele>1577.75</ele>
        <time>2017-04-29T12:31:21Z</time>
      </trkpt>
      <trkpt lat="46.0042" lon="6.69161">
        <ele>1577.5999755859</ele>
        <time>2017-04-29T12:31:29Z</time>
      </trkpt>
      <trkpt lat="46.00428" lon="6.69152">
        <ele>1577.5999755859</ele>
        <time>2017-04-29T12:31:39Z</time>
      </trkpt>
      <trkpt lat="46.00433" lon="6.69136">
        <ele>1577.6030273438</ele>
        <time>2017-04-29T12:31:50Z</time>
      </trkpt>
      <trkpt lat="46.00435" lon="6.69121">
        <ele>1578.0159912109</ele>
        <time>2017-04-29T12:32:06Z</time>
      </trkpt>
      <trkpt lat="46.00439" lon="6.69109">
        <ele>1577.4880371094</ele>
        <time>2017-04-29T12:32:19Z</time>
      </trkpt>
    </trkseg>
  </trk>
</gpx>